SWR160K LSZH-RJAA
Flight info
| Callsign | SWR160K |
|---|---|
| Flight time | 11h 32m |
| Altitude | 31000 |
| Route | DEGES Z2 UMVEG DCT DIMLO DCT INVED DCT SOKRU DCT DINRO DCT UDROS UM859 EVKAM/N0502F330 UM859 KARDE UL851 TBN UM11 REBLO M11 MATAL T916 LEYLA N161 GASBI/K0924F330 N161 MADEV/K0913F350 N161 SARIN/K0913S1070 A368 FKG W188 LIKMI W270 DKO W69 GUVBA/K0913S1130 W69 HUR B339 LADIX W34 VAPGU W100 MUDOT DCT UNSEK A326 DONVO G597 AGAVO/N0494F370 Y644 EGOBA Y697 LANAT Y51 SAMON Y517 ESKAS Y303 ENTAK/N0493F380 Y30 SWAMP |
| Aircraft | B77W/H-SDE1E2E3FGHIJ2J3J4J5M1RWXY/LB1D1 |
Departure
| Time | 2026-05-05 11:23 |
|---|---|
| Airport | Zürich Airport (LSZH) |
Arrival
| Time | 2026-05-05 22:56 |
|---|---|
| Airport | Narita International Airport (RJAA) |
| Time | Latitude | Longitude | Altitude | Speed | Heading |
|---|---|---|---|---|---|
| 2026-05-05 10:51 | 47.46191 | 8.55286 | 1429 ft | 0 kts | 186° |
| 2026-05-05 11:11 | 47.46204 | 8.55288 | 1429 ft | 2 kts | 185° |
| 2026-05-05 11:11 | 47.46219 | 8.55290 | 1429 ft | 2 kts | 186° |
| 2026-05-05 11:11 | 47.46235 | 8.55292 | 1429 ft | 2 kts | 186° |
| 2026-05-05 11:11 | 47.46250 | 8.55295 | 1429 ft | 2 kts | 186° |
| 2026-05-05 11:12 | 47.46265 | 8.55296 | 1429 ft | 0 kts | 192° |
| 2026-05-05 11:12 | 47.46268 | 8.55296 | 1429 ft | 0 kts | 243° |
| 2026-05-05 11:16 | 47.46267 | 8.55289 | 1429 ft | 1 kts | 259° |
| 2026-05-05 11:16 | 47.46269 | 8.55243 | 1429 ft | 9 kts | 276° |
| 2026-05-05 11:17 | 47.46282 | 8.55104 | 1429 ft | 17 kts | 278° |
| 2026-05-05 11:17 | 47.46298 | 8.54915 | 1429 ft | 19 kts | 276° |
| 2026-05-05 11:17 | 47.46331 | 8.54740 | 1429 ft | 18 kts | 317° |
| 2026-05-05 11:17 | 47.46437 | 8.54655 | 1429 ft | 17 kts | 334° |
| 2026-05-05 11:18 | 47.46540 | 8.54580 | 1429 ft | 16 kts | 334° |
| 2026-05-05 11:18 | 47.46639 | 8.54515 | 1429 ft | 15 kts | 336° |
| 2026-05-05 11:18 | 47.46732 | 8.54454 | 1429 ft | 14 kts | 338° |
| 2026-05-05 11:18 | 47.46831 | 8.54396 | 1429 ft | 16 kts | 338° |
| 2026-05-05 11:19 | 47.46946 | 8.54319 | 1429 ft | 21 kts | 334° |
| 2026-05-05 11:19 | 47.47101 | 8.54211 | 1429 ft | 26 kts | 335° |
| 2026-05-05 11:19 | 47.47255 | 8.54103 | 1429 ft | 24 kts | 334° |
| 2026-05-05 11:19 | 47.47400 | 8.54005 | 1429 ft | 22 kts | 335° |
| 2026-05-05 11:20 | 47.47537 | 8.53911 | 1429 ft | 21 kts | 334° |
| 2026-05-05 11:20 | 47.47603 | 8.53797 | 1429 ft | 4 kts | 279° |
| 2026-05-05 11:20 | 47.47603 | 8.53767 | 1429 ft | 4 kts | 262° |
| 2026-05-05 11:20 | 47.47596 | 8.53726 | 1429 ft | 4 kts | 253° |
| 2026-05-05 11:21 | 47.47586 | 8.53688 | 1429 ft | 4 kts | 247° |
| 2026-05-05 11:21 | 47.47573 | 8.53655 | 1429 ft | 5 kts | 235° |
| 2026-05-05 11:21 | 47.47525 | 8.53626 | 1429 ft | 11 kts | 176° |
| 2026-05-05 11:21 | 47.47452 | 8.53669 | 1429 ft | 11 kts | 152° |
| 2026-05-05 11:22 | 47.47378 | 8.53728 | 1429 ft | 18 kts | 153° |
| 2026-05-05 11:22 | 47.47105 | 8.53915 | 1429 ft | 80 kts | 155° |
| 2026-05-05 11:22 | 47.46370 | 8.54421 | 1430 ft | 152 kts | 155° |
| 2026-05-05 11:22 | 47.45218 | 8.55223 | 1438 ft | 210 kts | 155° |
| 2026-05-05 11:23 | 47.43848 | 8.56226 | 1936 ft | 225 kts | 149° |
| 2026-05-05 11:23 | 47.42668 | 8.57823 | 2683 ft | 237 kts | 123° |
| 2026-05-05 11:23 | 47.42264 | 8.60108 | 3590 ft | 232 kts | 90° |
| 2026-05-05 11:23 | 47.42511 | 8.62440 | 4243 ft | 237 kts | 78° |
| 2026-05-05 11:24 | 47.43123 | 8.64787 | 4531 ft | 251 kts | 61° |
| 2026-05-05 11:24 | 47.44104 | 8.66929 | 5122 ft | 255 kts | 55° |
| 2026-05-05 11:24 | 47.45227 | 8.69037 | 5497 ft | 270 kts | 51° |
| 2026-05-05 11:24 | 47.46275 | 8.71398 | 5882 ft | 282 kts | 66° |
| 2026-05-05 11:25 | 47.46810 | 8.74157 | 6640 ft | 278 kts | 83° |
| 2026-05-05 11:25 | 47.46805 | 8.77010 | 7311 ft | 279 kts | 99° |
| 2026-05-05 11:25 | 47.46488 | 8.79855 | 7907 ft | 284 kts | 97° |
| 2026-05-05 11:25 | 47.46413 | 8.82745 | 8525 ft | 286 kts | 92° |
| 2026-05-05 11:26 | 47.46287 | 8.85687 | 9121 ft | 288 kts | 98° |
| 2026-05-05 11:26 | 47.45934 | 8.88608 | 9750 ft | 290 kts | 104° |
| 2026-05-05 11:26 | 47.45376 | 8.91495 | 10305 ft | 295 kts | 108° |
| 2026-05-05 11:26 | 47.44849 | 8.94506 | 10561 ft | 311 kts | 103° |
| 2026-05-05 11:27 | 47.44404 | 8.97727 | 10792 ft | 329 kts | 102° |
| 2026-05-05 11:27 | 47.43976 | 9.01147 | 11006 ft | 347 kts | 101° |
| 2026-05-05 11:27 | 47.43552 | 9.04732 | 11324 ft | 361 kts | 102° |
| 2026-05-05 11:27 | 47.43030 | 9.08413 | 11767 ft | 371 kts | 103° |
| 2026-05-05 11:28 | 47.42467 | 9.12123 | 12248 ft | 379 kts | 104° |
| 2026-05-05 11:28 | 47.41992 | 9.16018 | 12785 ft | 385 kts | 97° |
| 2026-05-05 11:28 | 47.41910 | 9.19936 | 13393 ft | 390 kts | 90° |
| 2026-05-05 11:28 | 47.42142 | 9.23974 | 13836 ft | 399 kts | 86° |
| 2026-05-05 11:29 | 47.42531 | 9.28072 | 14310 ft | 406 kts | 83° |
| 2026-05-05 11:29 | 47.43079 | 9.32193 | 14835 ft | 412 kts | 81° |
| 2026-05-05 11:29 | 47.43733 | 9.36339 | 15385 ft | 417 kts | 79° |
| 2026-05-05 11:29 | 47.44392 | 9.40535 | 15914 ft | 421 kts | 80° |
| 2026-05-05 11:30 | 47.45030 | 9.44774 | 16414 ft | 425 kts | 81° |
| 2026-05-05 11:30 | 47.45666 | 9.49061 | 16929 ft | 429 kts | 81° |
| 2026-05-05 11:30 | 47.46293 | 9.53308 | 17460 ft | 431 kts | 81° |
| 2026-05-05 11:30 | 47.46778 | 9.57749 | 17959 ft | 432 kts | 88° |
| 2026-05-05 11:31 | 47.46923 | 9.62135 | 18442 ft | 433 kts | 93° |
| 2026-05-05 11:31 | 47.46896 | 9.66589 | 18945 ft | 435 kts | 95° |
| 2026-05-05 11:31 | 47.46743 | 9.71050 | 19475 ft | 436 kts | 97° |
| 2026-05-05 11:31 | 47.46521 | 9.75526 | 19944 ft | 438 kts | 98° |
| 2026-05-05 11:32 | 47.46271 | 9.80027 | 20419 ft | 441 kts | 98° |
| 2026-05-05 11:32 | 47.46006 | 9.84547 | 20880 ft | 443 kts | 98° |
| 2026-05-05 11:32 | 47.45737 | 9.89107 | 21302 ft | 446 kts | 98° |
| 2026-05-05 11:32 | 47.45467 | 9.93683 | 21725 ft | 449 kts | 98° |
| 2026-05-05 11:33 | 47.45193 | 9.98282 | 22154 ft | 451 kts | 98° |
| 2026-05-05 11:33 | 47.44918 | 10.02907 | 22556 ft | 453 kts | 98° |
| 2026-05-05 11:33 | 47.44644 | 10.07492 | 22934 ft | 456 kts | 98° |
| 2026-05-05 11:33 | 47.44365 | 10.12176 | 23312 ft | 459 kts | 98° |
| 2026-05-05 11:34 | 47.44081 | 10.16879 | 23682 ft | 461 kts | 99° |
| 2026-05-05 11:34 | 47.43652 | 10.21586 | 24050 ft | 462 kts | 103° |
| 2026-05-05 11:34 | 47.43041 | 10.26253 | 24399 ft | 464 kts | 105° |
| 2026-05-05 11:34 | 47.42352 | 10.30923 | 24732 ft | 467 kts | 105° |
| 2026-05-05 11:35 | 47.41686 | 10.35625 | 25121 ft | 469 kts | 104° |
| 2026-05-05 11:35 | 47.41042 | 10.40347 | 25494 ft | 470 kts | 104° |
| 2026-05-05 11:35 | 47.40396 | 10.45086 | 25858 ft | 472 kts | 104° |
| 2026-05-05 11:35 | 47.39747 | 10.49856 | 26104 ft | 476 kts | 104° |
| 2026-05-05 11:36 | 47.39090 | 10.54592 | 26414 ft | 479 kts | 104° |
| 2026-05-05 11:36 | 47.38415 | 10.59411 | 26733 ft | 481 kts | 105° |
| 2026-05-05 11:36 | 47.37734 | 10.64259 | 27043 ft | 483 kts | 105° |
| 2026-05-05 11:36 | 47.37049 | 10.69114 | 27348 ft | 485 kts | 105° |
| 2026-05-05 11:37 | 47.36358 | 10.74000 | 27646 ft | 487 kts | 105° |
| 2026-05-05 11:37 | 47.35664 | 10.78899 | 27933 ft | 489 kts | 105° |
| 2026-05-05 11:37 | 47.34966 | 10.83809 | 28204 ft | 492 kts | 104° |
| 2026-05-05 11:38 | 47.33539 | 10.93813 | 28501 ft | 501 kts | 104° |
| 2026-05-05 11:38 | 47.32822 | 10.98851 | 28801 ft | 503 kts | 104° |
| 2026-05-05 11:38 | 47.32147 | 11.03836 | 29065 ft | 504 kts | 103° |
| 2026-05-05 11:38 | 47.31483 | 11.08911 | 29320 ft | 506 kts | 103° |
| 2026-05-05 11:39 | 47.30794 | 11.13999 | 29568 ft | 507 kts | 104° |
| 2026-05-05 11:39 | 47.30064 | 11.19093 | 29812 ft | 508 kts | 104° |
| 2026-05-05 11:39 | 47.29318 | 11.24171 | 30165 ft | 506 kts | 105° |
| 2026-05-05 11:39 | 47.28575 | 11.29231 | 30525 ft | 504 kts | 105° |
| 2026-05-05 11:40 | 47.27833 | 11.34268 | 30822 ft | 504 kts | 105° |
| 2026-05-05 11:40 | 47.26348 | 11.44353 | 30835 ft | 504 kts | 105° |
| 2026-05-05 11:41 | 47.24918 | 11.54369 | 30853 ft | 504 kts | 103° |
| 2026-05-05 11:41 | 47.23913 | 11.64600 | 30847 ft | 505 kts | 100° |
| 2026-05-05 11:42 | 47.22848 | 11.74814 | 30878 ft | 505 kts | 102° |
| 2026-05-05 11:42 | 47.21714 | 11.85025 | 30837 ft | 506 kts | 102° |
| 2026-05-05 11:43 | 47.20624 | 11.95164 | 30861 ft | 506 kts | 101° |
| 2026-05-05 11:43 | 47.19631 | 12.05404 | 30873 ft | 506 kts | 101° |
| 2026-05-05 11:44 | 47.18615 | 12.15632 | 30887 ft | 506 kts | 101° |
| 2026-05-05 11:44 | 47.17576 | 12.25870 | 30898 ft | 506 kts | 101° |
| 2026-05-05 11:45 | 47.16533 | 12.36031 | 30908 ft | 506 kts | 101° |
| 2026-05-05 11:45 | 47.15521 | 12.46257 | 30917 ft | 506 kts | 100° |
| 2026-05-05 11:46 | 47.14538 | 12.56484 | 30918 ft | 506 kts | 101° |
| 2026-05-05 11:46 | 47.13509 | 12.66706 | 30917 ft | 506 kts | 101° |
| 2026-05-05 11:47 | 47.12457 | 12.76914 | 30916 ft | 506 kts | 101° |
| 2026-05-05 11:47 | 47.11399 | 12.87060 | 30937 ft | 507 kts | 101° |
| 2026-05-05 11:48 | 47.09769 | 13.02485 | 30946 ft | 512 kts | 101° |
| 2026-05-05 11:48 | 47.08669 | 13.12786 | 30945 ft | 511 kts | 101° |
| 2026-05-05 11:49 | 47.07558 | 13.23082 | 30947 ft | 511 kts | 101° |
| 2026-05-05 11:49 | 47.06435 | 13.33418 | 30911 ft | 514 kts | 100° |
| 2026-05-05 11:50 | 47.05299 | 13.43772 | 30937 ft | 515 kts | 100° |
| 2026-05-05 11:50 | 47.04157 | 13.54095 | 30940 ft | 517 kts | 100° |
| 2026-05-05 11:51 | 47.02997 | 13.64488 | 30939 ft | 517 kts | 100° |
| 2026-05-05 11:51 | 47.01827 | 13.74878 | 30940 ft | 516 kts | 100° |
| 2026-05-05 11:52 | 47.00650 | 13.85251 | 30939 ft | 516 kts | 100° |
| 2026-05-05 11:52 | 46.99470 | 13.95565 | 30938 ft | 516 kts | 100° |
| 2026-05-05 11:53 | 46.98273 | 14.05931 | 30927 ft | 517 kts | 100° |
| 2026-05-05 11:53 | 46.97057 | 14.16388 | 30935 ft | 517 kts | 100° |
| 2026-05-05 11:54 | 46.95846 | 14.26703 | 30935 ft | 519 kts | 100° |
| 2026-05-05 11:54 | 46.94608 | 14.37172 | 30933 ft | 526 kts | 100° |
| 2026-05-05 11:55 | 46.93345 | 14.47765 | 30932 ft | 532 kts | 100° |
| 2026-05-05 11:55 | 46.92057 | 14.58475 | 30932 ft | 537 kts | 100° |
| 2026-05-05 11:56 | 46.90972 | 14.67436 | 30935 ft | 539 kts | 101° |
| 2026-05-05 11:56 | 46.89439 | 14.79987 | 30936 ft | 539 kts | 101° |
| 2026-05-05 11:57 | 46.88110 | 14.90774 | 30935 ft | 539 kts | 101° |
| 2026-05-05 11:57 | 46.87046 | 14.99344 | 30937 ft | 539 kts | 101° |
| 2026-05-05 11:58 | 46.85658 | 15.10444 | 30898 ft | 536 kts | 101° |
| 2026-05-05 11:58 | 46.84310 | 15.21142 | 30891 ft | 535 kts | 101° |
| 2026-05-05 11:59 | 46.82732 | 15.33558 | 30888 ft | 536 kts | 101° |
| 2026-05-05 11:59 | 46.81594 | 15.42444 | 30892 ft | 535 kts | 101° |
| 2026-05-05 12:00 | 46.80217 | 15.53114 | 30900 ft | 534 kts | 102° |
| 2026-05-05 12:00 | 46.78833 | 15.63761 | 30907 ft | 535 kts | 102° |
| 2026-05-05 12:01 | 46.77441 | 15.74390 | 30903 ft | 531 kts | 102° |
| 2026-05-05 12:01 | 46.76047 | 15.84953 | 30907 ft | 530 kts | 102° |
| 2026-05-05 12:02 | 46.74643 | 15.95511 | 30909 ft | 531 kts | 102° |
| 2026-05-05 12:02 | 46.73281 | 16.06075 | 30908 ft | 531 kts | 102° |
| 2026-05-05 12:03 | 46.71853 | 16.16572 | 30908 ft | 531 kts | 102° |
| 2026-05-05 12:03 | 46.70399 | 16.27113 | 30909 ft | 531 kts | 102° |
| 2026-05-05 12:04 | 46.68941 | 16.37655 | 30912 ft | 531 kts | 102° |
| 2026-05-05 12:04 | 46.67526 | 16.48220 | 30913 ft | 532 kts | 101° |
| 2026-05-05 12:05 | 46.66323 | 16.58868 | 30916 ft | 534 kts | 100° |
| 2026-05-05 12:05 | 46.65109 | 16.69469 | 30921 ft | 535 kts | 100° |
| 2026-05-05 12:06 | 46.63847 | 16.80134 | 30925 ft | 535 kts | 101° |
| 2026-05-05 12:06 | 46.62558 | 16.90873 | 30935 ft | 536 kts | 101° |
| 2026-05-05 12:07 | 46.61352 | 17.01490 | 30939 ft | 536 kts | 100° |
| 2026-05-05 12:07 | 46.60119 | 17.12172 | 30970 ft | 535 kts | 100° |
| 2026-05-05 12:08 | 46.58848 | 17.22835 | 30972 ft | 535 kts | 100° |
| 2026-05-05 12:08 | 46.57563 | 17.33452 | 30957 ft | 531 kts | 101° |
| 2026-05-05 12:09 | 46.56280 | 17.43937 | 30959 ft | 530 kts | 101° |
| 2026-05-05 12:09 | 46.54979 | 17.54491 | 30961 ft | 531 kts | 101° |
| 2026-05-05 12:10 | 46.53665 | 17.65060 | 30960 ft | 532 kts | 101° |
| 2026-05-05 12:10 | 46.52341 | 17.75626 | 30961 ft | 532 kts | 101° |
| 2026-05-05 12:11 | 46.51008 | 17.86182 | 30964 ft | 532 kts | 101° |
| 2026-05-05 12:11 | 46.49673 | 17.96675 | 30962 ft | 532 kts | 101° |
| 2026-05-05 12:12 | 46.48319 | 18.07227 | 30961 ft | 532 kts | 101° |
| 2026-05-05 12:12 | 46.46956 | 18.17773 | 30968 ft | 532 kts | 101° |
| 2026-05-05 12:13 | 46.45582 | 18.28326 | 30970 ft | 533 kts | 101° |
| 2026-05-05 12:13 | 46.44207 | 18.38807 | 30974 ft | 533 kts | 101° |
| 2026-05-05 12:14 | 46.42812 | 18.49361 | 30976 ft | 533 kts | 101° |
| 2026-05-05 12:14 | 46.41409 | 18.59898 | 30976 ft | 533 kts | 101° |
| 2026-05-05 12:15 | 46.39997 | 18.70428 | 30978 ft | 533 kts | 102° |
| 2026-05-05 12:15 | 46.38599 | 18.80768 | 30993 ft | 532 kts | 102° |
| 2026-05-05 12:16 | 46.37167 | 18.91295 | 30982 ft | 532 kts | 102° |
| 2026-05-05 12:16 | 46.35729 | 19.01779 | 30985 ft | 530 kts | 102° |
| 2026-05-05 12:17 | 46.34292 | 19.12190 | 30975 ft | 526 kts | 101° |
| 2026-05-05 12:17 | 46.32853 | 19.22538 | 30973 ft | 524 kts | 101° |
| 2026-05-05 12:18 | 46.31415 | 19.32806 | 30972 ft | 524 kts | 102° |
| 2026-05-05 12:18 | 46.29960 | 19.43125 | 30969 ft | 524 kts | 102° |
| 2026-05-05 12:19 | 46.28497 | 19.53433 | 30969 ft | 523 kts | 102° |
| 2026-05-05 12:19 | 46.27027 | 19.63717 | 30964 ft | 522 kts | 102° |
| 2026-05-05 12:20 | 46.25561 | 19.73904 | 30964 ft | 521 kts | 102° |
| 2026-05-05 12:20 | 46.24077 | 19.84150 | 30965 ft | 521 kts | 102° |
| 2026-05-05 12:21 | 46.22585 | 19.94387 | 30964 ft | 521 kts | 102° |
| 2026-05-05 12:21 | 46.21131 | 20.04648 | 30966 ft | 521 kts | 102° |
| 2026-05-05 12:22 | 46.19617 | 20.14808 | 30964 ft | 521 kts | 102° |
| 2026-05-05 12:22 | 46.18077 | 20.25019 | 30966 ft | 521 kts | 102° |
| 2026-05-05 12:23 | 46.16535 | 20.35227 | 30968 ft | 520 kts | 102° |
| 2026-05-05 12:23 | 46.14861 | 20.45370 | 30971 ft | 520 kts | 105° |
| 2026-05-05 12:24 | 46.12728 | 20.55348 | 30977 ft | 521 kts | 107° |
| 2026-05-05 12:24 | 46.10493 | 20.65207 | 30980 ft | 521 kts | 107° |
| 2026-05-05 12:25 | 46.08297 | 20.75160 | 30986 ft | 521 kts | 106° |
| 2026-05-05 12:25 | 46.06117 | 20.85122 | 30987 ft | 522 kts | 106° |
| 2026-05-05 12:26 | 46.03996 | 20.95102 | 30991 ft | 521 kts | 105° |
| 2026-05-05 12:26 | 46.01883 | 21.05081 | 30993 ft | 521 kts | 105° |
| 2026-05-05 12:27 | 45.99751 | 21.14959 | 30995 ft | 520 kts | 106° |
| 2026-05-05 12:27 | 45.97587 | 21.24880 | 30993 ft | 520 kts | 106° |
| 2026-05-05 12:28 | 45.95409 | 21.34804 | 30994 ft | 521 kts | 106° |
| 2026-05-05 12:28 | 45.93222 | 21.44721 | 30994 ft | 522 kts | 106° |
| 2026-05-05 12:29 | 45.91018 | 21.54664 | 30994 ft | 523 kts | 106° |
| 2026-05-05 12:29 | 45.88819 | 21.64537 | 30994 ft | 523 kts | 106° |
| 2026-05-05 12:30 | 45.86598 | 21.74462 | 30994 ft | 522 kts | 107° |
| 2026-05-05 12:30 | 45.84371 | 21.84369 | 30994 ft | 522 kts | 107° |
| 2026-05-05 12:31 | 45.82123 | 21.94282 | 30995 ft | 522 kts | 107° |
| 2026-05-05 12:31 | 45.79579 | 22.04028 | 30994 ft | 523 kts | 111° |
| 2026-05-05 12:32 | 45.76763 | 22.13630 | 30994 ft | 523 kts | 112° |
| 2026-05-05 12:32 | 45.73853 | 22.23095 | 30994 ft | 523 kts | 112° |
| 2026-05-05 12:33 | 45.70912 | 22.32631 | 30994 ft | 524 kts | 112° |
| 2026-05-05 12:33 | 45.69437 | 22.37413 | 31102 ft | 525 kts | 112° |
| 2026-05-05 12:33 | 45.67963 | 22.42184 | 31362 ft | 523 kts | 112° |
| 2026-05-05 12:34 | 45.66494 | 22.46930 | 31616 ft | 522 kts | 112° |
| 2026-05-05 12:34 | 45.65026 | 22.51668 | 31831 ft | 522 kts | 112° |
| 2026-05-05 12:34 | 45.63553 | 22.56415 | 32023 ft | 522 kts | 112° |
| 2026-05-05 12:34 | 45.62100 | 22.61087 | 32224 ft | 521 kts | 112° |
| 2026-05-05 12:35 | 45.60629 | 22.65808 | 32514 ft | 518 kts | 112° |
| 2026-05-05 12:35 | 45.59165 | 22.70501 | 32733 ft | 517 kts | 112° |
| 2026-05-05 12:35 | 45.57699 | 22.75190 | 32873 ft | 518 kts | 112° |
| 2026-05-05 12:35 | 45.56230 | 22.79882 | 32993 ft | 518 kts | 112° |
| 2026-05-05 12:36 | 45.53282 | 22.89267 | 32999 ft | 518 kts | 112° |
| 2026-05-05 12:36 | 45.50331 | 22.98629 | 33000 ft | 518 kts | 112° |
| 2026-05-05 12:37 | 45.47392 | 23.07919 | 33003 ft | 518 kts | 112° |
| 2026-05-05 12:37 | 45.44425 | 23.17266 | 33009 ft | 518 kts | 112° |
| 2026-05-05 12:38 | 45.41448 | 23.26607 | 33011 ft | 518 kts | 112° |
| 2026-05-05 12:38 | 45.38456 | 23.35966 | 33012 ft | 520 kts | 112° |
| 2026-05-05 12:39 | 45.35474 | 23.45256 | 33014 ft | 520 kts | 112° |
| 2026-05-05 12:39 | 45.32468 | 23.54590 | 33017 ft | 519 kts | 112° |
| 2026-05-05 12:40 | 45.29454 | 23.63913 | 33017 ft | 519 kts | 112° |
| 2026-05-05 12:40 | 45.26432 | 23.73229 | 33017 ft | 519 kts | 112° |
| 2026-05-05 12:41 | 45.23425 | 23.82466 | 33019 ft | 519 kts | 112° |
| 2026-05-05 12:41 | 45.20391 | 23.91751 | 33020 ft | 519 kts | 112° |
| 2026-05-05 12:42 | 45.17346 | 24.01040 | 33018 ft | 519 kts | 112° |
| 2026-05-05 12:42 | 45.14295 | 24.10311 | 33019 ft | 519 kts | 112° |
| 2026-05-05 12:43 | 45.11260 | 24.19501 | 33024 ft | 517 kts | 112° |
| 2026-05-05 12:43 | 45.08211 | 24.28705 | 33024 ft | 516 kts | 112° |
| 2026-05-05 12:44 | 45.05152 | 24.37903 | 33022 ft | 516 kts | 112° |
| 2026-05-05 12:44 | 45.02092 | 24.47076 | 33024 ft | 516 kts | 112° |
| 2026-05-05 12:45 | 44.99024 | 24.56237 | 33025 ft | 516 kts | 112° |
| 2026-05-05 12:45 | 44.95974 | 24.65318 | 33023 ft | 514 kts | 112° |
| 2026-05-05 12:46 | 44.92897 | 24.74445 | 33023 ft | 516 kts | 112° |
| 2026-05-05 12:46 | 44.89803 | 24.83589 | 33025 ft | 516 kts | 112° |
| 2026-05-05 12:47 | 44.86708 | 24.92709 | 33023 ft | 515 kts | 112° |
| 2026-05-05 12:47 | 44.83608 | 25.01810 | 33022 ft | 515 kts | 113° |
| 2026-05-05 12:48 | 44.80523 | 25.10835 | 33024 ft | 514 kts | 113° |
| 2026-05-05 12:48 | 44.77416 | 25.19896 | 33024 ft | 514 kts | 113° |
| 2026-05-05 12:49 | 44.74301 | 25.28950 | 33023 ft | 514 kts | 113° |
| 2026-05-05 12:49 | 44.71184 | 25.37979 | 33023 ft | 513 kts | 113° |
| 2026-05-05 12:50 | 44.68082 | 25.46935 | 33024 ft | 513 kts | 113° |
| 2026-05-05 12:50 | 44.64952 | 25.55939 | 33024 ft | 512 kts | 113° |
| 2026-05-05 12:51 | 44.61819 | 25.64923 | 33022 ft | 512 kts | 113° |
| 2026-05-05 12:51 | 44.58681 | 25.73894 | 33024 ft | 512 kts | 114° |
| 2026-05-05 12:52 | 44.55559 | 25.82787 | 33025 ft | 512 kts | 114° |
| 2026-05-05 12:52 | 44.52414 | 25.91718 | 33023 ft | 511 kts | 114° |
| 2026-05-05 12:53 | 44.49263 | 26.00637 | 33023 ft | 511 kts | 114° |
| 2026-05-05 12:53 | 44.46103 | 26.09551 | 33024 ft | 513 kts | 114° |
| 2026-05-05 12:54 | 44.41316 | 26.22999 | 33022 ft | 515 kts | 114° |
| 2026-05-05 12:55 | 44.38135 | 26.31898 | 33024 ft | 515 kts | 114° |
| 2026-05-05 12:55 | 44.34928 | 26.40843 | 33024 ft | 515 kts | 114° |
| 2026-05-05 12:56 | 44.31713 | 26.49781 | 33023 ft | 515 kts | 114° |
| 2026-05-05 12:56 | 44.28490 | 26.58710 | 33023 ft | 515 kts | 114° |
| 2026-05-05 12:57 | 44.25257 | 26.67639 | 33025 ft | 515 kts | 114° |
| 2026-05-05 12:57 | 44.22045 | 26.76481 | 33028 ft | 513 kts | 114° |
| 2026-05-05 12:58 | 44.18823 | 26.85322 | 33030 ft | 512 kts | 114° |
| 2026-05-05 12:58 | 44.15590 | 26.94165 | 33033 ft | 512 kts | 115° |
| 2026-05-05 12:59 | 44.12345 | 27.03013 | 33034 ft | 514 kts | 115° |
| 2026-05-05 12:59 | 44.09109 | 27.11808 | 33038 ft | 514 kts | 115° |
| 2026-05-05 13:00 | 44.04213 | 27.25065 | 33064 ft | 512 kts | 115° |
| 2026-05-05 13:01 | 43.97741 | 27.42487 | 33070 ft | 508 kts | 116° |
| 2026-05-05 13:01 | 43.94494 | 27.51189 | 33070 ft | 506 kts | 116° |
| 2026-05-05 13:02 | 43.91251 | 27.59852 | 33072 ft | 506 kts | 116° |
| 2026-05-05 13:02 | 43.87999 | 27.68511 | 33076 ft | 506 kts | 116° |
| 2026-05-05 13:03 | 43.84740 | 27.77165 | 33083 ft | 506 kts | 116° |
| 2026-05-05 13:03 | 43.81500 | 27.85739 | 33082 ft | 506 kts | 116° |
| 2026-05-05 13:04 | 43.78235 | 27.94355 | 33082 ft | 506 kts | 116° |
| 2026-05-05 13:04 | 43.74962 | 28.02967 | 33083 ft | 506 kts | 116° |
| 2026-05-05 13:05 | 43.71676 | 28.11583 | 33083 ft | 506 kts | 116° |
| 2026-05-05 13:05 | 43.68410 | 28.20125 | 33081 ft | 506 kts | 116° |
| 2026-05-05 13:06 | 43.65112 | 28.28721 | 33083 ft | 506 kts | 116° |
| 2026-05-05 13:06 | 43.61810 | 28.37303 | 33083 ft | 506 kts | 117° |
| 2026-05-05 13:07 | 43.58500 | 28.45880 | 33081 ft | 506 kts | 117° |
| 2026-05-05 13:07 | 43.55183 | 28.54451 | 33082 ft | 506 kts | 117° |
| 2026-05-05 13:08 | 43.51862 | 28.63004 | 33084 ft | 506 kts | 117° |
| 2026-05-05 13:08 | 43.48555 | 28.71498 | 33082 ft | 506 kts | 117° |
| 2026-05-05 13:09 | 43.45221 | 28.80035 | 33081 ft | 506 kts | 117° |
| 2026-05-05 13:09 | 43.41883 | 28.88556 | 33083 ft | 506 kts | 117° |
| 2026-05-05 13:10 | 43.38561 | 28.97013 | 33083 ft | 506 kts | 117° |
| 2026-05-05 13:10 | 43.35212 | 29.05514 | 33081 ft | 506 kts | 117° |
| 2026-05-05 13:11 | 43.31855 | 29.14010 | 33083 ft | 506 kts | 117° |
| 2026-05-05 13:11 | 43.28493 | 29.22493 | 33083 ft | 506 kts | 117° |
| 2026-05-05 13:12 | 43.25147 | 29.30915 | 33082 ft | 506 kts | 117° |
| 2026-05-05 13:12 | 43.21771 | 29.39384 | 33082 ft | 506 kts | 117° |
| 2026-05-05 13:13 | 43.18392 | 29.47840 | 33084 ft | 506 kts | 117° |
| 2026-05-05 13:13 | 43.15004 | 29.56294 | 33082 ft | 506 kts | 117° |
| 2026-05-05 13:14 | 43.11612 | 29.64735 | 33082 ft | 506 kts | 117° |
| 2026-05-05 13:14 | 43.08238 | 29.73110 | 33083 ft | 506 kts | 117° |
| 2026-05-05 13:15 | 43.04834 | 29.81537 | 33083 ft | 506 kts | 117° |
| 2026-05-05 13:15 | 43.01426 | 29.89951 | 33081 ft | 506 kts | 117° |
| 2026-05-05 13:16 | 42.98014 | 29.98356 | 33083 ft | 506 kts | 118° |
| 2026-05-05 13:16 | 42.94619 | 30.06692 | 33069 ft | 505 kts | 117° |
| 2026-05-05 13:17 | 42.91188 | 30.15116 | 33068 ft | 510 kts | 116° |
| 2026-05-05 13:17 | 42.87787 | 30.23633 | 33070 ft | 512 kts | 112° |
| 2026-05-05 13:18 | 42.84853 | 30.32473 | 33070 ft | 512 kts | 112° |
| 2026-05-05 13:18 | 42.81410 | 30.40973 | 33065 ft | 513 kts | 118° |
| 2026-05-05 13:19 | 42.77992 | 30.49401 | 33071 ft | 512 kts | 113° |
| 2026-05-05 13:19 | 42.74889 | 30.58098 | 33068 ft | 509 kts | 108° |
| 2026-05-05 13:20 | 42.72855 | 30.67283 | 33066 ft | 505 kts | 97° |
| 2026-05-05 13:20 | 42.71924 | 30.76706 | 33068 ft | 501 kts | 92° |
| 2026-05-05 13:21 | 42.71137 | 30.86034 | 33067 ft | 500 kts | 94° |
| 2026-05-05 13:21 | 42.70202 | 30.95395 | 33065 ft | 500 kts | 94° |
| 2026-05-05 13:22 | 42.69217 | 31.04763 | 33064 ft | 501 kts | 95° |
| 2026-05-05 13:22 | 42.68285 | 31.14131 | 33066 ft | 500 kts | 94° |
| 2026-05-05 13:23 | 42.67335 | 31.23434 | 33064 ft | 500 kts | 94° |
| 2026-05-05 13:23 | 42.66351 | 31.32782 | 33063 ft | 500 kts | 95° |
| 2026-05-05 13:24 | 42.65354 | 31.42128 | 33064 ft | 500 kts | 95° |
| 2026-05-05 13:24 | 42.64348 | 31.51481 | 33054 ft | 501 kts | 94° |
| 2026-05-05 13:25 | 42.63349 | 31.60794 | 33056 ft | 501 kts | 93° |
| 2026-05-05 13:25 | 42.62363 | 31.70142 | 33057 ft | 500 kts | 94° |
| 2026-05-05 13:26 | 42.61320 | 31.79474 | 33058 ft | 500 kts | 94° |
| 2026-05-05 13:26 | 42.60269 | 31.88791 | 33059 ft | 500 kts | 94° |
| 2026-05-05 13:27 | 42.59214 | 31.98130 | 33057 ft | 500 kts | 94° |
| 2026-05-05 13:27 | 42.58109 | 32.07439 | 33060 ft | 500 kts | 95° |
| 2026-05-05 13:28 | 42.57018 | 32.16692 | 33059 ft | 500 kts | 94° |
| 2026-05-05 13:28 | 42.55944 | 32.26007 | 33057 ft | 500 kts | 94° |
| 2026-05-05 13:29 | 42.54856 | 32.35303 | 33053 ft | 498 kts | 95° |
| 2026-05-05 13:29 | 42.53765 | 32.44541 | 33053 ft | 494 kts | 95° |
| 2026-05-05 13:30 | 42.52694 | 32.53683 | 33053 ft | 495 kts | 94° |
| 2026-05-05 13:30 | 42.51656 | 32.62909 | 33052 ft | 495 kts | 95° |
| 2026-05-05 13:31 | 42.50579 | 32.72126 | 33054 ft | 495 kts | 95° |
| 2026-05-05 13:31 | 42.49515 | 32.81343 | 33054 ft | 495 kts | 95° |
| 2026-05-05 13:32 | 42.48392 | 32.90550 | 33052 ft | 495 kts | 95° |
| 2026-05-05 13:32 | 42.47258 | 32.99753 | 33038 ft | 497 kts | 96° |
| 2026-05-05 13:33 | 42.46127 | 33.08921 | 33038 ft | 497 kts | 96° |
| 2026-05-05 13:33 | 42.45004 | 33.18169 | 33039 ft | 497 kts | 95° |
| 2026-05-05 13:34 | 42.43877 | 33.27409 | 33038 ft | 497 kts | 96° |
| 2026-05-05 13:34 | 42.42729 | 33.36641 | 33035 ft | 496 kts | 96° |
| 2026-05-05 13:35 | 42.41587 | 33.45777 | 33034 ft | 496 kts | 97° |
| 2026-05-05 13:35 | 42.40458 | 33.54980 | 33032 ft | 496 kts | 97° |
| 2026-05-05 13:36 | 42.39278 | 33.64178 | 33034 ft | 496 kts | 97° |
| 2026-05-05 13:36 | 42.38081 | 33.73372 | 33035 ft | 497 kts | 97° |
| 2026-05-05 13:37 | 42.36879 | 33.82570 | 33033 ft | 497 kts | 97° |
| 2026-05-05 13:37 | 42.35685 | 33.91711 | 33035 ft | 497 kts | 97° |
| 2026-05-05 13:38 | 42.34507 | 34.00908 | 33036 ft | 497 kts | 97° |
| 2026-05-05 13:38 | 42.33320 | 34.10112 | 33036 ft | 497 kts | 98° |
| 2026-05-05 13:39 | 42.32091 | 34.19303 | 33038 ft | 497 kts | 98° |
| 2026-05-05 13:39 | 42.30864 | 34.28422 | 33040 ft | 497 kts | 98° |
| 2026-05-05 13:40 | 42.29629 | 34.37598 | 33040 ft | 496 kts | 98° |
| 2026-05-05 13:40 | 42.28416 | 34.46757 | 33040 ft | 495 kts | 98° |
| 2026-05-05 13:41 | 42.27162 | 34.55879 | 33043 ft | 494 kts | 99° |
| 2026-05-05 13:41 | 42.25896 | 34.64939 | 33043 ft | 494 kts | 99° |
| 2026-05-05 13:42 | 42.24618 | 34.74061 | 33045 ft | 494 kts | 99° |
| 2026-05-05 13:42 | 42.23342 | 34.83175 | 33048 ft | 494 kts | 99° |
| 2026-05-05 13:43 | 42.22060 | 34.92280 | 33048 ft | 494 kts | 99° |
| 2026-05-05 13:43 | 42.20786 | 35.01383 | 33049 ft | 494 kts | 98° |
| 2026-05-05 13:44 | 42.19557 | 35.10431 | 33051 ft | 494 kts | 99° |
| 2026-05-05 13:44 | 42.18252 | 35.19529 | 33049 ft | 494 kts | 99° |
| 2026-05-05 13:45 | 42.16936 | 35.28622 | 33048 ft | 494 kts | 99° |
| 2026-05-05 13:45 | 42.15619 | 35.37713 | 33048 ft | 494 kts | 99° |
| 2026-05-05 13:46 | 42.14302 | 35.46800 | 33045 ft | 495 kts | 99° |
| 2026-05-05 13:46 | 42.12979 | 35.55836 | 33041 ft | 495 kts | 99° |
| 2026-05-05 13:47 | 42.11636 | 35.64933 | 33040 ft | 495 kts | 100° |
| 2026-05-05 13:47 | 42.10284 | 35.74033 | 33035 ft | 496 kts | 100° |
| 2026-05-05 13:48 | 42.08923 | 35.83141 | 33032 ft | 497 kts | 100° |
| 2026-05-05 13:48 | 42.07593 | 35.92261 | 33034 ft | 495 kts | 99° |
| 2026-05-05 13:49 | 42.06279 | 36.01366 | 33030 ft | 496 kts | 100° |
| 2026-05-05 13:49 | 42.04938 | 36.10397 | 33027 ft | 496 kts | 101° |
| 2026-05-05 13:50 | 42.03569 | 36.19506 | 33027 ft | 497 kts | 101° |
| 2026-05-05 13:50 | 42.02190 | 36.28617 | 33025 ft | 497 kts | 101° |
| 2026-05-05 13:51 | 42.00801 | 36.37737 | 33022 ft | 498 kts | 101° |
| 2026-05-05 13:51 | 41.99415 | 36.46793 | 33023 ft | 498 kts | 101° |
| 2026-05-05 13:52 | 41.98010 | 36.55914 | 33022 ft | 498 kts | 101° |
| 2026-05-05 13:52 | 41.96614 | 36.65032 | 33020 ft | 499 kts | 101° |
| 2026-05-05 13:53 | 41.95221 | 36.74165 | 33021 ft | 499 kts | 102° |
| 2026-05-05 13:53 | 41.93789 | 36.83221 | 33021 ft | 499 kts | 102° |
| 2026-05-05 13:54 | 41.92338 | 36.92335 | 33019 ft | 499 kts | 102° |
| 2026-05-05 13:54 | 41.90864 | 37.01438 | 33020 ft | 499 kts | 104° |
| 2026-05-05 13:55 | 41.88670 | 37.10275 | 33022 ft | 500 kts | 111° |
| 2026-05-05 13:55 | 41.85956 | 37.18794 | 33019 ft | 500 kts | 113° |
| 2026-05-05 13:56 | 41.83206 | 37.27357 | 33017 ft | 500 kts | 113° |
| 2026-05-05 13:56 | 41.80532 | 37.36005 | 33020 ft | 502 kts | 113° |
| 2026-05-05 13:57 | 41.77797 | 37.44625 | 33019 ft | 502 kts | 114° |
| 2026-05-05 13:57 | 41.75050 | 37.53223 | 33017 ft | 502 kts | 114° |
| 2026-05-05 13:58 | 41.72309 | 37.61792 | 33013 ft | 507 kts | 115° |
| 2026-05-05 13:58 | 41.69517 | 37.70509 | 33015 ft | 511 kts | 115° |
| 2026-05-05 13:59 | 41.65273 | 37.83610 | 33012 ft | 511 kts | 115° |
| 2026-05-05 14:00 | 41.61499 | 37.95212 | 33013 ft | 511 kts | 116° |
| 2026-05-05 14:00 | 41.58196 | 38.05329 | 33013 ft | 511 kts | 116° |
| 2026-05-05 14:01 | 41.55386 | 38.14045 | 33013 ft | 512 kts | 115° |
| 2026-05-05 14:01 | 41.52569 | 38.22774 | 33024 ft | 511 kts | 116° |
| 2026-05-05 14:02 | 41.49746 | 38.31408 | 33022 ft | 511 kts | 116° |
| 2026-05-05 14:02 | 41.46892 | 38.40100 | 33024 ft | 511 kts | 116° |
| 2026-05-05 14:03 | 41.44066 | 38.48803 | 33024 ft | 512 kts | 116° |
| 2026-05-05 14:03 | 41.41189 | 38.57467 | 33022 ft | 512 kts | 117° |
| 2026-05-05 14:04 | 41.38292 | 38.66150 | 33008 ft | 514 kts | 117° |
| 2026-05-05 14:04 | 41.35405 | 38.74792 | 33010 ft | 515 kts | 118° |
| 2026-05-05 14:05 | 41.32522 | 38.83513 | 33010 ft | 515 kts | 117° |
| 2026-05-05 14:05 | 41.29690 | 38.92253 | 33009 ft | 515 kts | 117° |
| 2026-05-05 14:06 | 41.27296 | 38.99506 | 33010 ft | 515 kts | 118° |
| 2026-05-05 14:06 | 41.23943 | 39.09627 | 33013 ft | 515 kts | 118° |
| 2026-05-05 14:07 | 41.21056 | 39.18336 | 33014 ft | 515 kts | 118° |
| 2026-05-05 14:07 | 41.18050 | 39.26967 | 33013 ft | 516 kts | 120° |
| 2026-05-05 14:08 | 41.15509 | 39.34132 | 33015 ft | 516 kts | 119° |
| 2026-05-05 14:08 | 41.12481 | 39.42754 | 33014 ft | 516 kts | 118° |
| 2026-05-05 14:09 | 41.09507 | 39.51395 | 33018 ft | 516 kts | 119° |
| 2026-05-05 14:09 | 41.06461 | 39.60010 | 33021 ft | 516 kts | 119° |
| 2026-05-05 14:10 | 41.03431 | 39.68539 | 33021 ft | 516 kts | 119° |
| 2026-05-05 14:10 | 41.00649 | 39.77291 | 33020 ft | 519 kts | 111° |
| 2026-05-05 14:11 | 40.99288 | 39.86715 | 33024 ft | 525 kts | 99° |
| 2026-05-05 14:11 | 40.99065 | 39.96427 | 33022 ft | 530 kts | 94° |
| 2026-05-05 14:12 | 40.98894 | 40.06107 | 33018 ft | 530 kts | 96° |
| 2026-05-05 14:12 | 40.98621 | 40.15855 | 33017 ft | 529 kts | 96° |
| 2026-05-05 14:13 | 40.98360 | 40.25582 | 33013 ft | 529 kts | 96° |
| 2026-05-05 14:13 | 40.98083 | 40.35326 | 33007 ft | 530 kts | 96° |
| 2026-05-05 14:14 | 40.97799 | 40.44996 | 33004 ft | 530 kts | 96° |
| 2026-05-05 14:14 | 40.97578 | 40.54742 | 33000 ft | 530 kts | 95° |
| 2026-05-05 14:15 | 40.97293 | 40.64498 | 32993 ft | 531 kts | 96° |
| 2026-05-05 14:15 | 40.96978 | 40.74258 | 32990 ft | 531 kts | 96° |
| 2026-05-05 14:16 | 40.96661 | 40.84018 | 32985 ft | 531 kts | 96° |
| 2026-05-05 14:16 | 40.96343 | 40.93712 | 32979 ft | 531 kts | 96° |
| 2026-05-05 14:17 | 40.95999 | 41.03486 | 32980 ft | 533 kts | 96° |
| 2026-05-05 14:17 | 40.95640 | 41.13284 | 32978 ft | 534 kts | 96° |
| 2026-05-05 14:18 | 40.95271 | 41.23100 | 32973 ft | 534 kts | 97° |
| 2026-05-05 14:18 | 40.94896 | 41.32844 | 32971 ft | 534 kts | 97° |
| 2026-05-05 14:19 | 40.94572 | 41.42665 | 32968 ft | 536 kts | 96° |
| 2026-05-05 14:19 | 40.94235 | 41.52543 | 32969 ft | 539 kts | 96° |
| 2026-05-05 14:20 | 40.93863 | 41.62460 | 32966 ft | 541 kts | 96° |
| 2026-05-05 14:20 | 40.93476 | 41.72338 | 32965 ft | 542 kts | 97° |
| 2026-05-05 14:21 | 40.93076 | 41.82316 | 32966 ft | 544 kts | 97° |
| 2026-05-05 14:21 | 40.92665 | 41.92316 | 32949 ft | 545 kts | 97° |
| 2026-05-05 14:22 | 40.92244 | 42.02330 | 32950 ft | 546 kts | 97° |
| 2026-05-05 14:22 | 40.91818 | 42.12287 | 32949 ft | 547 kts | 97° |
| 2026-05-05 14:23 | 40.91379 | 42.22323 | 32952 ft | 547 kts | 97° |
| 2026-05-05 14:23 | 40.90931 | 42.32372 | 32953 ft | 548 kts | 97° |
| 2026-05-05 14:24 | 40.90474 | 42.42428 | 32953 ft | 548 kts | 97° |
| 2026-05-05 14:24 | 40.90008 | 42.52489 | 32956 ft | 549 kts | 97° |
| 2026-05-05 14:25 | 40.89535 | 42.62493 | 32956 ft | 549 kts | 97° |
| 2026-05-05 14:25 | 40.89052 | 42.72555 | 32952 ft | 549 kts | 97° |
| 2026-05-05 14:26 | 40.88558 | 42.82642 | 32958 ft | 549 kts | 97° |
| 2026-05-05 14:26 | 40.88059 | 42.92653 | 32953 ft | 544 kts | 97° |
| 2026-05-05 14:27 | 40.87556 | 43.02577 | 32953 ft | 540 kts | 97° |
| 2026-05-05 14:27 | 40.87050 | 43.12400 | 32955 ft | 540 kts | 97° |
| 2026-05-05 14:28 | 40.86530 | 43.22314 | 32952 ft | 541 kts | 97° |
| 2026-05-05 14:28 | 40.86036 | 43.32245 | 32947 ft | 541 kts | 97° |
| 2026-05-05 14:29 | 40.85503 | 43.42165 | 32946 ft | 541 kts | 98° |
| 2026-05-05 14:29 | 40.84943 | 43.52012 | 32942 ft | 541 kts | 98° |
| 2026-05-05 14:30 | 40.84376 | 43.61928 | 32937 ft | 541 kts | 98° |
| 2026-05-05 14:30 | 40.83825 | 43.71844 | 32936 ft | 542 kts | 96° |
| 2026-05-05 14:31 | 40.83563 | 43.81784 | 32934 ft | 542 kts | 96° |
| 2026-05-05 14:31 | 40.83216 | 43.91721 | 32933 ft | 542 kts | 96° |
| 2026-05-05 14:32 | 40.82864 | 44.01600 | 32935 ft | 542 kts | 96° |
| 2026-05-05 14:32 | 40.82501 | 44.11550 | 32932 ft | 543 kts | 96° |
| 2026-05-05 14:33 | 40.82129 | 44.21507 | 32929 ft | 544 kts | 96° |
| 2026-05-05 14:33 | 40.81761 | 44.31490 | 32905 ft | 547 kts | 96° |
| 2026-05-05 14:34 | 40.81447 | 44.41496 | 32898 ft | 550 kts | 97° |
| 2026-05-05 14:34 | 40.81080 | 44.51618 | 32898 ft | 554 kts | 97° |
| 2026-05-05 14:35 | 40.80951 | 44.61796 | 32897 ft | 558 kts | 91° |
| 2026-05-05 14:35 | 40.81750 | 44.72023 | 32896 ft | 563 kts | 84° |
| 2026-05-05 14:36 | 40.83631 | 44.82093 | 32896 ft | 568 kts | 74° |
| 2026-05-05 14:36 | 40.86380 | 44.91917 | 32894 ft | 571 kts | 71° |
| 2026-05-05 14:37 | 40.89348 | 45.01576 | 32897 ft | 572 kts | 70° |
| 2026-05-05 14:37 | 40.92388 | 45.11318 | 32883 ft | 574 kts | 70° |
| 2026-05-05 14:38 | 40.95437 | 45.21133 | 32878 ft | 580 kts | 70° |
| 2026-05-05 14:38 | 40.98503 | 45.31038 | 32878 ft | 584 kts | 70° |
| 2026-05-05 14:39 | 41.01538 | 45.40882 | 32883 ft | 578 kts | 70° |
| 2026-05-05 14:39 | 41.04553 | 45.50698 | 32880 ft | 574 kts | 70° |
| 2026-05-05 14:40 | 41.07558 | 45.60513 | 32876 ft | 576 kts | 70° |
| 2026-05-05 14:40 | 41.10560 | 45.70358 | 32875 ft | 574 kts | 70° |
| 2026-05-05 14:41 | 41.13519 | 45.80099 | 32870 ft | 573 kts | 70° |
| 2026-05-05 14:41 | 41.16493 | 45.89923 | 32868 ft | 576 kts | 70° |
| 2026-05-05 14:42 | 41.19475 | 45.99812 | 32868 ft | 578 kts | 71° |
| 2026-05-05 14:42 | 41.22454 | 46.09726 | 32864 ft | 579 kts | 71° |
| 2026-05-05 14:43 | 41.25429 | 46.19669 | 32864 ft | 579 kts | 71° |
| 2026-05-05 14:43 | 41.28380 | 46.29563 | 32865 ft | 580 kts | 71° |
| 2026-05-05 14:44 | 41.31340 | 46.39529 | 32863 ft | 580 kts | 71° |
| 2026-05-05 14:44 | 41.34293 | 46.49508 | 32864 ft | 579 kts | 71° |
| 2026-05-05 14:45 | 41.37215 | 46.59420 | 32865 ft | 579 kts | 71° |
| 2026-05-05 14:45 | 41.40145 | 46.69396 | 32871 ft | 580 kts | 71° |
| 2026-05-05 14:46 | 41.43076 | 46.79414 | 32878 ft | 580 kts | 71° |
| 2026-05-05 14:46 | 41.45995 | 46.89433 | 32880 ft | 579 kts | 71° |
| 2026-05-05 14:47 | 41.48697 | 46.98738 | 32883 ft | 578 kts | 71° |
| 2026-05-05 14:47 | 41.51353 | 47.07920 | 32889 ft | 582 kts | 72° |
| 2026-05-05 14:48 | 41.54250 | 47.17970 | 32892 ft | 585 kts | 72° |
| 2026-05-05 14:48 | 41.57163 | 47.28117 | 32897 ft | 584 kts | 72° |
| 2026-05-05 14:49 | 41.60060 | 47.38249 | 32902 ft | 584 kts | 72° |
| 2026-05-05 14:49 | 41.62945 | 47.48377 | 32906 ft | 583 kts | 72° |
| 2026-05-05 14:50 | 41.65803 | 47.58451 | 32912 ft | 583 kts | 72° |
| 2026-05-05 14:50 | 41.68670 | 47.68597 | 32914 ft | 583 kts | 72° |
| 2026-05-05 14:51 | 41.71529 | 47.78756 | 32919 ft | 583 kts | 72° |
| 2026-05-05 14:51 | 41.74373 | 47.88899 | 32930 ft | 582 kts | 72° |
| 2026-05-05 14:52 | 41.77191 | 47.98994 | 32933 ft | 582 kts | 72° |
| 2026-05-05 14:52 | 41.80014 | 48.09142 | 32937 ft | 581 kts | 72° |
| 2026-05-05 14:53 | 41.82826 | 48.19297 | 32937 ft | 581 kts | 72° |
| 2026-05-05 14:53 | 41.85631 | 48.29465 | 32941 ft | 581 kts | 73° |
| 2026-05-05 14:54 | 41.88406 | 48.39563 | 32942 ft | 582 kts | 73° |
| 2026-05-05 14:54 | 41.91208 | 48.49802 | 32942 ft | 585 kts | 73° |
| 2026-05-05 14:55 | 41.94002 | 48.60055 | 32945 ft | 585 kts | 73° |
| 2026-05-05 14:55 | 41.96784 | 48.70305 | 32944 ft | 584 kts | 73° |
| 2026-05-05 14:56 | 41.99558 | 48.80569 | 32946 ft | 583 kts | 73° |
| 2026-05-05 14:56 | 42.02299 | 48.90750 | 32946 ft | 583 kts | 73° |
| 2026-05-05 14:57 | 42.05051 | 49.01014 | 32946 ft | 583 kts | 73° |
| 2026-05-05 14:57 | 42.07790 | 49.11273 | 32947 ft | 583 kts | 73° |
| 2026-05-05 14:58 | 42.10520 | 49.21539 | 32946 ft | 582 kts | 73° |
| 2026-05-05 14:58 | 42.13223 | 49.31744 | 32948 ft | 582 kts | 73° |
| 2026-05-05 14:59 | 42.15933 | 49.42016 | 32946 ft | 582 kts | 73° |
| 2026-05-05 14:59 | 42.18631 | 49.52289 | 32949 ft | 581 kts | 73° |
| 2026-05-05 15:00 | 42.20869 | 49.60837 | 32949 ft | 581 kts | 73° |
| 2026-05-05 15:00 | 42.23985 | 49.72787 | 32949 ft | 581 kts | 73° |
| 2026-05-05 15:01 | 42.26638 | 49.83002 | 32957 ft | 573 kts | 73° |
| 2026-05-05 15:01 | 42.29253 | 49.93110 | 32956 ft | 569 kts | 73° |
| 2026-05-05 15:02 | 42.31857 | 50.03205 | 32956 ft | 569 kts | 73° |
| 2026-05-05 15:02 | 42.34604 | 50.13163 | 32955 ft | 570 kts | 70° |
| 2026-05-05 15:03 | 42.37443 | 50.23177 | 32957 ft | 570 kts | 73° |
| 2026-05-05 15:03 | 42.39975 | 50.33331 | 32954 ft | 570 kts | 73° |
| 2026-05-05 15:04 | 42.42893 | 50.43306 | 32954 ft | 571 kts | 66° |
| 2026-05-05 15:04 | 42.46809 | 50.52672 | 32955 ft | 573 kts | 57° |
| 2026-05-05 15:05 | 42.54027 | 50.65512 | 32956 ft | 574 kts | 52° |
| 2026-05-05 15:06 | 42.58964 | 50.74031 | 32956 ft | 574 kts | 52° |
| 2026-05-05 15:06 | 42.63838 | 50.82617 | 32956 ft | 574 kts | 53° |
| 2026-05-05 15:07 | 42.68744 | 50.91189 | 32956 ft | 574 kts | 52° |
| 2026-05-05 15:07 | 42.73598 | 50.99719 | 32955 ft | 574 kts | 53° |
| 2026-05-05 15:08 | 42.78471 | 51.08351 | 32945 ft | 578 kts | 53° |
| 2026-05-05 15:08 | 42.83384 | 51.17094 | 32946 ft | 583 kts | 53° |
| 2026-05-05 15:09 | 42.88314 | 51.25895 | 32946 ft | 584 kts | 53° |
| 2026-05-05 15:09 | 42.93235 | 51.34707 | 32946 ft | 583 kts | 54° |
| 2026-05-05 15:10 | 42.98143 | 51.43522 | 32945 ft | 583 kts | 54° |
| 2026-05-05 15:10 | 43.03012 | 51.52293 | 32946 ft | 583 kts | 54° |
| 2026-05-05 15:11 | 43.07907 | 51.61137 | 32944 ft | 583 kts | 54° |
| 2026-05-05 15:11 | 43.12801 | 51.70006 | 32946 ft | 583 kts | 54° |
| 2026-05-05 15:12 | 43.17679 | 51.78874 | 32944 ft | 583 kts | 54° |
| 2026-05-05 15:12 | 43.22524 | 51.87706 | 32945 ft | 583 kts | 54° |
| 2026-05-05 15:13 | 43.27392 | 51.96608 | 32945 ft | 583 kts | 54° |
| 2026-05-05 15:13 | 43.32252 | 52.05522 | 32944 ft | 583 kts | 54° |
| 2026-05-05 15:14 | 43.37103 | 52.14445 | 32945 ft | 583 kts | 54° |
| 2026-05-05 15:14 | 43.41953 | 52.23395 | 32889 ft | 582 kts | 54° |
| 2026-05-05 15:15 | 43.46744 | 52.32261 | 32850 ft | 575 kts | 54° |
| 2026-05-05 15:15 | 43.51486 | 52.40975 | 32845 ft | 571 kts | 54° |
| 2026-05-05 15:16 | 43.56201 | 52.49787 | 32847 ft | 572 kts | 54° |
| 2026-05-05 15:16 | 43.60920 | 52.58637 | 32846 ft | 573 kts | 54° |
| 2026-05-05 15:17 | 43.65637 | 52.67487 | 32846 ft | 572 kts | 54° |
| 2026-05-05 15:17 | 43.70301 | 52.76309 | 32847 ft | 572 kts | 54° |
| 2026-05-05 15:18 | 43.75015 | 52.85167 | 32845 ft | 572 kts | 55° |
| 2026-05-05 15:18 | 43.79686 | 52.94093 | 32847 ft | 572 kts | 55° |
| 2026-05-05 15:19 | 43.84350 | 53.03031 | 32846 ft | 572 kts | 55° |
| 2026-05-05 15:19 | 43.88978 | 53.11906 | 32846 ft | 572 kts | 55° |
| 2026-05-05 15:20 | 43.93636 | 53.20857 | 32847 ft | 572 kts | 55° |
| 2026-05-05 15:20 | 43.98279 | 53.29828 | 32846 ft | 572 kts | 55° |
| 2026-05-05 15:21 | 44.02913 | 53.38817 | 32846 ft | 572 kts | 56° |
| 2026-05-05 15:21 | 44.07544 | 53.47826 | 32869 ft | 574 kts | 55° |
| 2026-05-05 15:22 | 44.12247 | 53.56870 | 32877 ft | 578 kts | 55° |
| 2026-05-05 15:22 | 44.16917 | 53.65894 | 32875 ft | 578 kts | 55° |
| 2026-05-05 15:23 | 44.21590 | 53.75006 | 32876 ft | 577 kts | 55° |
| 2026-05-05 15:23 | 44.26245 | 53.84123 | 32876 ft | 577 kts | 55° |
| 2026-05-05 15:24 | 44.30897 | 53.93265 | 32875 ft | 578 kts | 56° |
| 2026-05-05 15:24 | 44.35512 | 54.02363 | 32877 ft | 577 kts | 56° |
| 2026-05-05 15:25 | 44.40149 | 54.11533 | 32875 ft | 577 kts | 56° |
| 2026-05-05 15:25 | 44.44773 | 54.20708 | 32876 ft | 577 kts | 56° |
| 2026-05-05 15:26 | 44.49411 | 54.29898 | 32876 ft | 577 kts | 55° |
| 2026-05-05 15:26 | 44.54038 | 54.39083 | 32875 ft | 577 kts | 56° |
| 2026-05-05 15:27 | 44.58602 | 54.48269 | 32876 ft | 577 kts | 56° |
| 2026-05-05 15:27 | 44.63187 | 54.57515 | 32875 ft | 577 kts | 56° |
| 2026-05-05 15:28 | 44.68279 | 54.66236 | 32876 ft | 578 kts | 46° |
| 2026-05-05 15:28 | 44.74021 | 54.74009 | 32786 ft | 569 kts | 40° |
| 2026-05-05 15:29 | 44.79911 | 54.81253 | 32762 ft | 563 kts | 40° |
| 2026-05-05 15:29 | 44.85707 | 54.88631 | 32757 ft | 561 kts | 40° |
| 2026-05-05 15:30 | 44.91515 | 54.96015 | 32758 ft | 563 kts | 40° |
| 2026-05-05 15:30 | 44.97287 | 55.03502 | 32758 ft | 563 kts | 41° |
| 2026-05-05 15:31 | 45.03006 | 55.10945 | 32757 ft | 563 kts | 41° |
| 2026-05-05 15:31 | 45.08146 | 55.19301 | 32757 ft | 565 kts | 55° |
| 2026-05-05 15:32 | 45.11816 | 55.29117 | 32758 ft | 566 kts | 68° |
| 2026-05-05 15:32 | 45.14563 | 55.39569 | 32757 ft | 566 kts | 72° |
| 2026-05-05 15:33 | 45.17233 | 55.49969 | 32758 ft | 565 kts | 71° |
| 2026-05-05 15:33 | 45.20011 | 55.60390 | 32757 ft | 565 kts | 70° |
| 2026-05-05 15:34 | 45.22856 | 55.70797 | 32758 ft | 566 kts | 69° |
| 2026-05-05 15:34 | 45.25713 | 55.81201 | 32758 ft | 566 kts | 70° |
| 2026-05-05 15:35 | 45.28507 | 55.91548 | 32757 ft | 566 kts | 70° |
| 2026-05-05 15:35 | 45.31300 | 56.01968 | 32758 ft | 562 kts | 70° |
| 2026-05-05 15:36 | 45.34063 | 56.12333 | 32757 ft | 560 kts | 70° |
| 2026-05-05 15:36 | 45.36813 | 56.22691 | 32758 ft | 560 kts | 70° |
| 2026-05-05 15:37 | 45.39538 | 56.33004 | 32758 ft | 561 kts | 70° |
| 2026-05-05 15:37 | 45.42274 | 56.43404 | 32757 ft | 561 kts | 70° |
| 2026-05-05 15:38 | 45.44998 | 56.53804 | 32758 ft | 561 kts | 70° |
| 2026-05-05 15:38 | 45.47713 | 56.64215 | 32757 ft | 561 kts | 70° |
| 2026-05-05 15:39 | 45.50403 | 56.74575 | 32758 ft | 561 kts | 70° |
| 2026-05-05 15:39 | 45.53098 | 56.85002 | 32758 ft | 561 kts | 70° |
| 2026-05-05 15:40 | 45.55784 | 56.95441 | 32757 ft | 561 kts | 70° |
| 2026-05-05 15:40 | 45.58464 | 57.05902 | 32758 ft | 561 kts | 70° |
| 2026-05-05 15:41 | 45.61112 | 57.16286 | 32758 ft | 561 kts | 71° |
| 2026-05-05 15:41 | 45.63784 | 57.26744 | 32757 ft | 561 kts | 70° |
| 2026-05-05 15:42 | 45.66463 | 57.37214 | 32758 ft | 561 kts | 71° |
| 2026-05-05 15:42 | 45.69080 | 57.47708 | 32812 ft | 559 kts | 70° |
| 2026-05-05 15:43 | 45.71684 | 57.58185 | 32817 ft | 559 kts | 70° |
| 2026-05-05 15:43 | 45.74290 | 57.68671 | 32817 ft | 559 kts | 70° |
| 2026-05-05 15:44 | 45.76868 | 57.79108 | 32816 ft | 559 kts | 71° |
| 2026-05-05 15:44 | 45.79441 | 57.89613 | 32817 ft | 559 kts | 71° |
| 2026-05-05 15:45 | 45.82003 | 58.00137 | 32817 ft | 559 kts | 71° |
| 2026-05-05 15:45 | 45.84558 | 58.10677 | 32816 ft | 559 kts | 71° |
| 2026-05-05 15:46 | 45.87141 | 58.21122 | 32818 ft | 559 kts | 70° |
| 2026-05-05 15:46 | 45.89738 | 58.31640 | 32816 ft | 559 kts | 71° |
| 2026-05-05 15:47 | 45.92294 | 58.42182 | 32816 ft | 559 kts | 71° |
| 2026-05-05 15:47 | 45.94835 | 58.52745 | 32817 ft | 559 kts | 71° |
| 2026-05-05 15:48 | 45.97365 | 58.63315 | 32816 ft | 559 kts | 71° |
| 2026-05-05 15:48 | 45.99866 | 58.73817 | 32817 ft | 559 kts | 71° |
| 2026-05-05 15:49 | 46.02376 | 58.84409 | 32817 ft | 559 kts | 71° |
| 2026-05-05 15:49 | 46.04855 | 58.94919 | 32874 ft | 550 kts | 71° |
| 2026-05-05 15:50 | 46.07288 | 59.05281 | 32875 ft | 545 kts | 71° |
| 2026-05-05 15:50 | 46.09689 | 59.15556 | 32877 ft | 544 kts | 71° |
| 2026-05-05 15:51 | 46.12097 | 59.25914 | 32876 ft | 545 kts | 71° |
| 2026-05-05 15:51 | 46.14543 | 59.36266 | 32876 ft | 546 kts | 71° |
| 2026-05-05 15:52 | 46.16913 | 59.46591 | 32876 ft | 545 kts | 72° |
| 2026-05-05 15:52 | 46.19273 | 59.56982 | 32875 ft | 545 kts | 72° |
| 2026-05-05 15:53 | 46.21633 | 59.67390 | 32876 ft | 545 kts | 72° |
| 2026-05-05 15:53 | 46.23983 | 59.77808 | 32876 ft | 545 kts | 72° |
| 2026-05-05 15:54 | 46.26287 | 59.88176 | 32875 ft | 545 kts | 72° |
| 2026-05-05 15:54 | 46.28588 | 59.98616 | 32876 ft | 545 kts | 72° |
| 2026-05-05 15:55 | 46.30871 | 60.09031 | 32945 ft | 540 kts | 72° |
| 2026-05-05 15:55 | 46.33123 | 60.19358 | 32953 ft | 536 kts | 72° |
| 2026-05-05 15:56 | 46.35433 | 60.29603 | 32954 ft | 535 kts | 72° |
| 2026-05-05 15:56 | 46.37699 | 60.39796 | 32962 ft | 536 kts | 72° |
| 2026-05-05 15:57 | 46.39947 | 60.50075 | 32965 ft | 536 kts | 72° |
| 2026-05-05 15:57 | 46.42181 | 60.60373 | 32965 ft | 535 kts | 72° |
| 2026-05-05 15:58 | 46.44400 | 60.70666 | 32964 ft | 535 kts | 72° |
| 2026-05-05 15:58 | 46.46611 | 60.80973 | 32965 ft | 535 kts | 72° |
| 2026-05-05 15:59 | 46.48813 | 60.91289 | 32965 ft | 535 kts | 72° |
| 2026-05-05 15:59 | 46.50989 | 61.01537 | 32964 ft | 535 kts | 72° |
| 2026-05-05 16:00 | 46.53172 | 61.11869 | 32965 ft | 535 kts | 72° |
| 2026-05-05 16:00 | 46.55347 | 61.22211 | 32964 ft | 535 kts | 73° |
| 2026-05-05 16:01 | 46.57510 | 61.32553 | 32964 ft | 535 kts | 73° |
| 2026-05-05 16:01 | 46.59662 | 61.42897 | 32965 ft | 535 kts | 73° |
| 2026-05-05 16:02 | 46.61793 | 61.53191 | 32964 ft | 535 kts | 73° |
| 2026-05-05 16:02 | 46.63927 | 61.63551 | 32964 ft | 535 kts | 73° |
| 2026-05-05 16:03 | 46.66055 | 61.73936 | 32965 ft | 535 kts | 73° |
| 2026-05-05 16:03 | 46.68171 | 61.84316 | 32964 ft | 535 kts | 73° |
| 2026-05-05 16:04 | 46.70275 | 61.94693 | 32964 ft | 535 kts | 73° |
| 2026-05-05 16:04 | 46.72359 | 62.05024 | 32965 ft | 535 kts | 73° |
| 2026-05-05 16:05 | 46.74462 | 62.15413 | 32964 ft | 535 kts | 72° |
| 2026-05-05 16:05 | 46.76572 | 62.25809 | 32964 ft | 535 kts | 73° |
| 2026-05-05 16:06 | 46.78622 | 62.36245 | 32965 ft | 535 kts | 73° |
| 2026-05-05 16:06 | 46.80648 | 62.46605 | 32964 ft | 535 kts | 73° |
| 2026-05-05 16:07 | 46.82690 | 62.57041 | 32964 ft | 535 kts | 73° |
| 2026-05-05 16:07 | 46.84720 | 62.67498 | 32965 ft | 535 kts | 74° |
| 2026-05-05 16:08 | 46.86729 | 62.77956 | 32964 ft | 535 kts | 74° |
| 2026-05-05 16:08 | 46.88725 | 62.88425 | 32964 ft | 535 kts | 74° |
| 2026-05-05 16:09 | 46.90710 | 62.98896 | 32965 ft | 535 kts | 74° |
| 2026-05-05 16:09 | 46.92693 | 63.09304 | 32964 ft | 535 kts | 73° |
| 2026-05-05 16:10 | 46.94747 | 63.19761 | 32965 ft | 535 kts | 74° |
| 2026-05-05 16:10 | 46.96748 | 63.30247 | 32965 ft | 535 kts | 74° |
| 2026-05-05 16:11 | 46.98725 | 63.40745 | 32964 ft | 535 kts | 74° |
| 2026-05-05 16:12 | 47.02622 | 63.61644 | 32965 ft | 533 kts | 74° |
| 2026-05-05 16:13 | 47.07448 | 63.87865 | 32964 ft | 533 kts | 75° |
| 2026-05-05 16:13 | 47.09362 | 63.98372 | 32965 ft | 533 kts | 75° |
| 2026-05-05 16:14 | 47.13197 | 64.19294 | 32963 ft | 532 kts | 75° |
| 2026-05-05 16:15 | 47.16919 | 64.40356 | 32964 ft | 532 kts | 75° |
| 2026-05-05 16:16 | 47.20640 | 64.61332 | 32965 ft | 532 kts | 74° |
| 2026-05-05 16:17 | 47.23410 | 64.77146 | 32965 ft | 532 kts | 75° |
| 2026-05-05 16:18 | 47.26127 | 64.92973 | 32969 ft | 532 kts | 76° |
| 2026-05-05 16:19 | 47.28836 | 65.08756 | 32996 ft | 533 kts | 76° |
| 2026-05-05 16:19 | 47.31530 | 65.24617 | 32996 ft | 532 kts | 76° |
| 2026-05-05 16:20 | 47.35161 | 65.45705 | 32998 ft | 532 kts | 75° |
| 2026-05-05 16:22 | 47.39591 | 65.72191 | 32996 ft | 532 kts | 77° |
| 2026-05-05 16:23 | 47.42814 | 65.91611 | 32997 ft | 532 kts | 76° |
| 2026-05-05 16:23 | 47.45805 | 66.09225 | 32997 ft | 532 kts | 76° |
| 2026-05-05 16:24 | 47.47283 | 66.18043 | 32998 ft | 532 kts | 76° |
| 2026-05-05 16:25 | 47.50026 | 66.33935 | 32999 ft | 532 kts | 76° |
| 2026-05-05 16:25 | 47.52969 | 66.51581 | 33020 ft | 532 kts | 77° |
| 2026-05-05 16:26 | 47.56164 | 66.71156 | 33024 ft | 535 kts | 77° |
| 2026-05-05 16:27 | 47.57845 | 66.81876 | 33023 ft | 534 kts | 77° |
| 2026-05-05 16:27 | 47.59480 | 66.92607 | 33023 ft | 534 kts | 78° |
| 2026-05-05 16:28 | 47.61112 | 67.03346 | 33024 ft | 534 kts | 78° |
| 2026-05-05 16:28 | 47.62727 | 67.14023 | 33024 ft | 534 kts | 78° |
| 2026-05-05 16:29 | 47.64359 | 67.24766 | 33022 ft | 534 kts | 77° |
| 2026-05-05 16:29 | 47.66083 | 67.35485 | 33024 ft | 534 kts | 77° |
| 2026-05-05 16:30 | 47.67716 | 67.46238 | 33024 ft | 534 kts | 78° |
| 2026-05-05 16:30 | 47.69283 | 67.56943 | 33023 ft | 535 kts | 78° |
| 2026-05-05 16:31 | 47.70863 | 67.67740 | 33024 ft | 536 kts | 79° |
| 2026-05-05 16:31 | 47.72421 | 67.78551 | 33025 ft | 535 kts | 80° |
| 2026-05-05 16:32 | 47.73551 | 67.89477 | 33023 ft | 535 kts | 84° |
| 2026-05-05 16:32 | 47.74484 | 68.00439 | 33024 ft | 535 kts | 83° |
| 2026-05-05 16:33 | 47.75489 | 68.11311 | 33024 ft | 534 kts | 83° |
| 2026-05-05 16:33 | 47.76515 | 68.22221 | 33023 ft | 533 kts | 83° |
| 2026-05-05 16:34 | 47.77579 | 68.33134 | 33023 ft | 533 kts | 82° |
| 2026-05-05 16:34 | 47.78708 | 68.44036 | 33024 ft | 533 kts | 83° |
| 2026-05-05 16:35 | 47.79702 | 68.54881 | 33023 ft | 533 kts | 84° |
| 2026-05-05 16:35 | 47.80684 | 68.65815 | 33023 ft | 533 kts | 84° |
| 2026-05-05 16:36 | 47.81666 | 68.76781 | 33382 ft | 533 kts | 84° |
| 2026-05-05 16:36 | 47.82019 | 68.82251 | 33690 ft | 530 kts | 88° |
| 2026-05-05 16:36 | 47.82136 | 68.87728 | 33900 ft | 530 kts | 91° |
| 2026-05-05 16:37 | 47.82096 | 68.93139 | 34114 ft | 529 kts | 93° |
| 2026-05-05 16:37 | 47.81951 | 68.98599 | 34336 ft | 528 kts | 95° |
| 2026-05-05 16:37 | 47.81763 | 69.04054 | 34551 ft | 528 kts | 95° |
| 2026-05-05 16:37 | 47.81594 | 69.09501 | 34760 ft | 527 kts | 94° |
| 2026-05-05 16:38 | 47.81448 | 69.14954 | 34954 ft | 527 kts | 94° |
| 2026-05-05 16:38 | 47.81314 | 69.20410 | 35021 ft | 527 kts | 94° |
| 2026-05-05 16:38 | 47.81055 | 69.31307 | 35024 ft | 527 kts | 94° |
| 2026-05-05 16:39 | 47.80867 | 69.42221 | 35023 ft | 527 kts | 93° |
| 2026-05-05 16:39 | 47.80658 | 69.53121 | 35024 ft | 527 kts | 94° |
| 2026-05-05 16:40 | 47.80410 | 69.64017 | 35023 ft | 527 kts | 94° |
| 2026-05-05 16:40 | 47.80144 | 69.74940 | 35024 ft | 530 kts | 94° |
| 2026-05-05 16:41 | 47.79868 | 69.85844 | 35024 ft | 532 kts | 94° |
| 2026-05-05 16:41 | 47.79578 | 69.96840 | 35023 ft | 531 kts | 94° |
| 2026-05-05 16:42 | 47.79279 | 70.07803 | 35024 ft | 531 kts | 94° |
| 2026-05-05 16:42 | 47.78983 | 70.18783 | 35022 ft | 531 kts | 94° |
| 2026-05-05 16:43 | 47.78707 | 70.29677 | 35024 ft | 531 kts | 94° |
| 2026-05-05 16:43 | 47.78354 | 70.40645 | 35023 ft | 531 kts | 95° |
| 2026-05-05 16:44 | 47.77992 | 70.51611 | 35024 ft | 531 kts | 95° |
| 2026-05-05 16:44 | 47.77631 | 70.62572 | 35023 ft | 531 kts | 95° |
| 2026-05-05 16:45 | 47.77257 | 70.73530 | 35024 ft | 531 kts | 95° |
| 2026-05-05 16:45 | 47.76867 | 70.84407 | 35023 ft | 531 kts | 95° |
| 2026-05-05 16:46 | 47.76462 | 70.95369 | 35023 ft | 531 kts | 95° |
| 2026-05-05 16:46 | 47.76049 | 71.06315 | 35024 ft | 531 kts | 95° |
| 2026-05-05 16:47 | 47.75639 | 71.17248 | 35022 ft | 531 kts | 95° |
| 2026-05-05 16:47 | 47.75305 | 71.27812 | 35024 ft | 531 kts | 94° |
| 2026-05-05 16:48 | 47.74917 | 71.38762 | 35107 ft | 531 kts | 93° |
| 2026-05-05 16:48 | 47.74517 | 71.49724 | 35113 ft | 531 kts | 94° |
| 2026-05-05 16:49 | 47.74050 | 71.60677 | 35111 ft | 531 kts | 94° |
| 2026-05-05 16:49 | 47.73576 | 71.71619 | 35113 ft | 531 kts | 94° |
| 2026-05-05 16:50 | 47.73105 | 71.82486 | 35111 ft | 531 kts | 94° |
| 2026-05-05 16:50 | 47.72521 | 71.93410 | 35113 ft | 531 kts | 96° |
| 2026-05-05 16:51 | 47.71837 | 72.04317 | 35111 ft | 531 kts | 96° |
| 2026-05-05 16:51 | 47.71156 | 72.15234 | 35113 ft | 531 kts | 96° |
| 2026-05-05 16:52 | 47.70475 | 72.26063 | 35112 ft | 531 kts | 96° |
| 2026-05-05 16:52 | 47.69799 | 72.36963 | 35112 ft | 531 kts | 95° |
| 2026-05-05 16:53 | 47.69202 | 72.47879 | 35112 ft | 531 kts | 96° |
| 2026-05-05 16:53 | 47.68551 | 72.58785 | 35112 ft | 531 kts | 96° |
| 2026-05-05 16:54 | 47.67875 | 72.69619 | 35113 ft | 530 kts | 96° |
| 2026-05-05 16:54 | 47.67178 | 72.80515 | 35111 ft | 530 kts | 96° |
| 2026-05-05 16:55 | 47.66468 | 72.91409 | 35113 ft | 532 kts | 96° |
| 2026-05-05 16:55 | 47.65745 | 73.02345 | 35111 ft | 532 kts | 96° |
| 2026-05-05 16:56 | 47.65013 | 73.13259 | 35113 ft | 532 kts | 96° |
| 2026-05-05 16:56 | 47.64274 | 73.24107 | 35111 ft | 532 kts | 96° |
| 2026-05-05 16:57 | 47.63521 | 73.35016 | 35113 ft | 532 kts | 96° |
| 2026-05-05 16:57 | 47.62757 | 73.45925 | 35112 ft | 532 kts | 96° |
| 2026-05-05 16:58 | 47.61983 | 73.56829 | 35112 ft | 532 kts | 96° |
| 2026-05-05 16:58 | 47.61199 | 73.67729 | 35112 ft | 532 kts | 96° |
| 2026-05-05 16:59 | 47.60409 | 73.78553 | 35112 ft | 532 kts | 96° |
| 2026-05-05 16:59 | 47.59605 | 73.89444 | 35112 ft | 532 kts | 96° |
| 2026-05-05 17:00 | 47.58789 | 74.00339 | 35112 ft | 532 kts | 97° |
| 2026-05-05 17:00 | 47.57963 | 74.11227 | 35113 ft | 532 kts | 97° |
| 2026-05-05 17:01 | 47.57127 | 74.22119 | 35111 ft | 532 kts | 97° |
| 2026-05-05 17:01 | 47.56287 | 74.32919 | 35113 ft | 532 kts | 97° |
| 2026-05-05 17:02 | 47.55430 | 74.43802 | 35111 ft | 532 kts | 97° |
| 2026-05-05 17:02 | 47.54563 | 74.54683 | 35113 ft | 532 kts | 97° |
| 2026-05-05 17:03 | 47.53685 | 74.65562 | 35111 ft | 533 kts | 97° |
| 2026-05-05 17:03 | 47.52802 | 74.76378 | 35113 ft | 533 kts | 97° |
| 2026-05-05 17:04 | 47.51903 | 74.87268 | 35111 ft | 533 kts | 97° |
| 2026-05-05 17:04 | 47.50994 | 74.98142 | 35113 ft | 533 kts | 97° |
| 2026-05-05 17:05 | 47.50076 | 75.08994 | 35111 ft | 529 kts | 96° |
| 2026-05-05 17:05 | 47.49156 | 75.19755 | 35112 ft | 526 kts | 96° |
| 2026-05-05 17:06 | 47.48235 | 75.30405 | 35113 ft | 526 kts | 97° |
| 2026-05-05 17:06 | 47.47296 | 75.41143 | 35112 ft | 527 kts | 97° |
| 2026-05-05 17:07 | 47.46346 | 75.51886 | 35113 ft | 527 kts | 97° |
| 2026-05-05 17:07 | 47.45386 | 75.62622 | 35111 ft | 527 kts | 97° |
| 2026-05-05 17:08 | 47.44423 | 75.73278 | 35113 ft | 527 kts | 97° |
| 2026-05-05 17:08 | 47.43443 | 75.84012 | 35111 ft | 527 kts | 97° |
| 2026-05-05 17:09 | 47.42454 | 75.94736 | 35113 ft | 527 kts | 97° |
| 2026-05-05 17:09 | 47.41452 | 76.05478 | 35111 ft | 528 kts | 97° |
| 2026-05-05 17:10 | 47.40453 | 76.16092 | 35112 ft | 523 kts | 97° |
| 2026-05-05 17:10 | 47.39445 | 76.26687 | 35112 ft | 519 kts | 97° |
| 2026-05-05 17:11 | 47.38431 | 76.37229 | 35111 ft | 519 kts | 97° |
| 2026-05-05 17:11 | 47.37407 | 76.47781 | 35113 ft | 520 kts | 97° |
| 2026-05-05 17:12 | 47.36373 | 76.58335 | 35111 ft | 520 kts | 97° |
| 2026-05-05 17:12 | 47.35388 | 76.68836 | 35113 ft | 520 kts | 97° |
| 2026-05-05 17:13 | 47.34322 | 76.79384 | 35111 ft | 520 kts | 97° |
| 2026-05-05 17:13 | 47.33238 | 76.89916 | 35113 ft | 520 kts | 97° |
| 2026-05-05 17:14 | 47.32157 | 77.00394 | 35111 ft | 520 kts | 97° |
| 2026-05-05 17:14 | 47.31170 | 77.10939 | 35113 ft | 520 kts | 95° |
| 2026-05-05 17:15 | 47.30622 | 77.21567 | 35111 ft | 519 kts | 92° |
| 2026-05-05 17:15 | 47.30126 | 77.32182 | 35113 ft | 519 kts | 93° |
| 2026-05-05 17:16 | 47.29550 | 77.42776 | 35111 ft | 519 kts | 94° |
| 2026-05-05 17:16 | 47.28948 | 77.53308 | 35113 ft | 519 kts | 94° |
| 2026-05-05 17:17 | 47.28388 | 77.63916 | 35111 ft | 519 kts | 93° |
| 2026-05-05 17:17 | 47.27830 | 77.74517 | 35113 ft | 520 kts | 93° |
| 2026-05-05 17:18 | 47.27226 | 77.85130 | 35112 ft | 520 kts | 94° |
| 2026-05-05 17:18 | 47.26607 | 77.95680 | 35112 ft | 520 kts | 94° |
| 2026-05-05 17:19 | 47.25972 | 78.06288 | 35112 ft | 520 kts | 94° |
| 2026-05-05 17:19 | 47.25327 | 78.16895 | 35112 ft | 520 kts | 94° |
| 2026-05-05 17:20 | 47.24672 | 78.27507 | 35112 ft | 521 kts | 94° |
| 2026-05-05 17:20 | 47.24007 | 78.38118 | 35112 ft | 521 kts | 94° |
| 2026-05-05 17:21 | 47.23336 | 78.48656 | 35112 ft | 521 kts | 94° |
| 2026-05-05 17:22 | 47.22306 | 78.64560 | 35113 ft | 521 kts | 94° |
| 2026-05-05 17:22 | 47.21652 | 78.75176 | 35111 ft | 521 kts | 94° |
| 2026-05-05 17:23 | 47.20944 | 78.85775 | 35112 ft | 521 kts | 94° |
| 2026-05-05 17:23 | 47.20208 | 78.96301 | 35112 ft | 521 kts | 95° |
| 2026-05-05 17:24 | 47.19462 | 79.06907 | 35112 ft | 521 kts | 95° |
| 2026-05-05 17:24 | 47.18715 | 79.17509 | 35112 ft | 521 kts | 95° |
| 2026-05-05 17:25 | 47.17939 | 79.28110 | 35094 ft | 521 kts | 94° |
| 2026-05-05 17:25 | 47.17161 | 79.38602 | 35082 ft | 519 kts | 94° |
| 2026-05-05 17:26 | 47.16458 | 79.49143 | 35083 ft | 519 kts | 94° |
| 2026-05-05 17:26 | 47.15672 | 79.59691 | 35082 ft | 519 kts | 94° |
| 2026-05-05 17:27 | 47.14855 | 79.70234 | 35083 ft | 519 kts | 94° |
| 2026-05-05 17:27 | 47.14036 | 79.80779 | 35082 ft | 519 kts | 94° |
| 2026-05-05 17:28 | 47.13226 | 79.91242 | 35083 ft | 519 kts | 94° |
| 2026-05-05 17:28 | 47.12402 | 80.01784 | 35082 ft | 519 kts | 94° |
| 2026-05-05 17:29 | 47.11564 | 80.12318 | 35083 ft | 519 kts | 94° |
| 2026-05-05 17:29 | 47.10716 | 80.22846 | 35082 ft | 519 kts | 95° |
| 2026-05-05 17:30 | 47.09861 | 80.33379 | 35083 ft | 519 kts | 95° |
| 2026-05-05 17:30 | 47.09058 | 80.43828 | 35081 ft | 519 kts | 94° |
| 2026-05-05 17:31 | 47.08238 | 80.54358 | 35083 ft | 519 kts | 94° |
| 2026-05-05 17:31 | 47.07437 | 80.64818 | 35082 ft | 519 kts | 95° |
| 2026-05-05 17:32 | 47.06548 | 80.75336 | 35083 ft | 520 kts | 95° |
| 2026-05-05 17:32 | 47.05642 | 80.85849 | 35083 ft | 519 kts | 95° |
| 2026-05-05 17:33 | 47.04739 | 80.96313 | 35082 ft | 517 kts | 94° |
| 2026-05-05 17:33 | 47.03834 | 81.06762 | 35083 ft | 517 kts | 94° |
| 2026-05-05 17:34 | 47.02912 | 81.17209 | 35082 ft | 517 kts | 94° |
| 2026-05-05 17:34 | 47.01983 | 81.27595 | 35083 ft | 517 kts | 94° |
| 2026-05-05 17:35 | 47.01042 | 81.38033 | 35082 ft | 517 kts | 94° |
| 2026-05-05 17:35 | 47.00111 | 81.48484 | 35084 ft | 517 kts | 94° |
| 2026-05-05 17:36 | 46.99279 | 81.58808 | 35081 ft | 517 kts | 94° |
| 2026-05-05 17:36 | 46.98299 | 81.69368 | 35083 ft | 517 kts | 95° |
| 2026-05-05 17:37 | 46.97315 | 81.79807 | 35082 ft | 517 kts | 95° |
| 2026-05-05 17:37 | 46.96331 | 81.90244 | 35083 ft | 517 kts | 95° |
| 2026-05-05 17:38 | 46.95330 | 82.00671 | 35082 ft | 517 kts | 95° |
| 2026-05-05 17:38 | 46.94309 | 82.11015 | 35083 ft | 517 kts | 95° |
| 2026-05-05 17:39 | 46.93271 | 82.21437 | 35082 ft | 518 kts | 95° |
| 2026-05-05 17:39 | 46.92226 | 82.31857 | 35083 ft | 518 kts | 95° |
| 2026-05-05 17:40 | 46.91184 | 82.42206 | 35082 ft | 518 kts | 95° |
| 2026-05-05 17:40 | 46.90246 | 82.52633 | 35084 ft | 518 kts | 95° |
| 2026-05-05 17:41 | 46.89193 | 82.63054 | 35082 ft | 518 kts | 95° |
| 2026-05-05 17:41 | 46.88105 | 82.73458 | 35083 ft | 518 kts | 95° |
| 2026-05-05 17:42 | 46.86946 | 82.83866 | 35084 ft | 519 kts | 99° |
| 2026-05-05 17:42 | 46.84556 | 82.93758 | 35083 ft | 525 kts | 114° |
| 2026-05-05 17:43 | 46.80675 | 83.02857 | 35084 ft | 530 kts | 121° |
| 2026-05-05 17:43 | 46.76633 | 83.11869 | 35082 ft | 531 kts | 120° |
| 2026-05-05 17:44 | 46.72690 | 83.20958 | 35083 ft | 530 kts | 120° |
| 2026-05-05 17:44 | 46.68743 | 83.30035 | 35082 ft | 530 kts | 120° |
| 2026-05-05 17:45 | 46.64801 | 83.39031 | 35084 ft | 530 kts | 121° |
| 2026-05-05 17:45 | 46.60478 | 83.47734 | 35081 ft | 532 kts | 125° |
| 2026-05-05 17:46 | 46.56014 | 83.56305 | 35083 ft | 532 kts | 124° |
| 2026-05-05 17:46 | 46.51615 | 83.64948 | 35082 ft | 532 kts | 124° |
| 2026-05-05 17:47 | 46.47254 | 83.73544 | 35083 ft | 532 kts | 124° |
| 2026-05-05 17:47 | 46.42919 | 83.82222 | 35082 ft | 532 kts | 123° |
| 2026-05-05 17:48 | 46.38557 | 83.90906 | 35167 ft | 535 kts | 123° |
| 2026-05-05 17:48 | 46.34100 | 83.99603 | 35171 ft | 539 kts | 123° |
| 2026-05-05 17:49 | 46.29659 | 84.08254 | 35171 ft | 539 kts | 123° |
| 2026-05-05 17:49 | 46.25195 | 84.16941 | 35172 ft | 538 kts | 123° |
| 2026-05-05 17:50 | 46.20698 | 84.25581 | 35171 ft | 538 kts | 124° |
| 2026-05-05 17:50 | 46.16192 | 84.34206 | 35172 ft | 538 kts | 124° |
| 2026-05-05 17:51 | 46.11679 | 84.42824 | 35170 ft | 538 kts | 124° |
| 2026-05-05 17:51 | 46.07191 | 84.51373 | 35172 ft | 538 kts | 124° |
| 2026-05-05 17:52 | 46.02704 | 84.59999 | 35170 ft | 538 kts | 123° |
| 2026-05-05 17:52 | 45.98216 | 84.68610 | 35172 ft | 538 kts | 124° |
| 2026-05-05 17:53 | 45.93697 | 84.77193 | 35171 ft | 538 kts | 124° |
| 2026-05-05 17:53 | 45.89172 | 84.85754 | 35170 ft | 538 kts | 124° |
| 2026-05-05 17:54 | 45.84669 | 84.94337 | 35171 ft | 538 kts | 124° |
| 2026-05-05 17:54 | 45.80147 | 85.02808 | 35171 ft | 538 kts | 124° |
| 2026-05-05 17:55 | 45.75578 | 85.11336 | 35164 ft | 542 kts | 128° |
| 2026-05-05 17:55 | 45.70956 | 85.19942 | 35171 ft | 550 kts | 128° |
| 2026-05-05 17:56 | 45.66275 | 85.28683 | 35170 ft | 556 kts | 128° |
| 2026-05-05 17:56 | 45.61537 | 85.37497 | 35172 ft | 561 kts | 128° |
| 2026-05-05 17:57 | 45.56805 | 85.46268 | 35171 ft | 561 kts | 129° |
| 2026-05-05 17:57 | 45.52037 | 85.55077 | 35171 ft | 560 kts | 129° |
| 2026-05-05 17:58 | 45.47281 | 85.63873 | 35172 ft | 561 kts | 128° |
| 2026-05-05 17:58 | 45.42561 | 85.72712 | 35170 ft | 561 kts | 129° |
| 2026-05-05 17:59 | 45.37833 | 85.81450 | 35172 ft | 561 kts | 129° |
| 2026-05-05 17:59 | 45.33060 | 85.90218 | 35171 ft | 561 kts | 129° |
| 2026-05-05 18:00 | 45.28274 | 85.98977 | 35170 ft | 561 kts | 130° |
| 2026-05-05 18:00 | 45.23487 | 86.07711 | 35172 ft | 561 kts | 130° |
| 2026-05-05 18:01 | 45.18721 | 86.16379 | 35171 ft | 561 kts | 130° |
| 2026-05-05 18:01 | 45.13921 | 86.25083 | 35171 ft | 561 kts | 130° |
| 2026-05-05 18:02 | 45.09117 | 86.33770 | 35172 ft | 557 kts | 131° |
| 2026-05-05 18:02 | 45.04344 | 86.42369 | 35171 ft | 554 kts | 132° |
| 2026-05-05 18:03 | 44.99621 | 86.50941 | 35172 ft | 553 kts | 132° |
| 2026-05-05 18:03 | 44.94853 | 86.59470 | 35170 ft | 553 kts | 133° |
| 2026-05-05 18:04 | 44.90073 | 86.67972 | 35171 ft | 552 kts | 133° |
| 2026-05-05 18:04 | 44.85329 | 86.76394 | 35171 ft | 552 kts | 133° |
| 2026-05-05 18:05 | 44.80542 | 86.84854 | 35170 ft | 552 kts | 134° |
| 2026-05-05 18:05 | 44.75697 | 86.93239 | 35171 ft | 552 kts | 134° |
| 2026-05-05 18:06 | 44.70864 | 87.01625 | 35171 ft | 552 kts | 133° |
| 2026-05-05 18:06 | 44.66080 | 87.09964 | 35171 ft | 552 kts | 134° |
| 2026-05-05 18:07 | 44.61235 | 87.18315 | 35171 ft | 552 kts | 134° |
| 2026-05-05 18:07 | 44.56385 | 87.26657 | 35172 ft | 552 kts | 134° |
| 2026-05-05 18:08 | 44.51620 | 87.35097 | 35171 ft | 553 kts | 131° |
| 2026-05-05 18:08 | 44.47033 | 87.43735 | 35170 ft | 553 kts | 131° |
| 2026-05-05 18:09 | 44.42345 | 87.52279 | 35172 ft | 553 kts | 132° |
| 2026-05-05 18:09 | 44.37687 | 87.60727 | 35171 ft | 552 kts | 132° |
| 2026-05-05 18:10 | 44.33002 | 87.69220 | 35170 ft | 552 kts | 132° |
| 2026-05-05 18:10 | 44.28404 | 87.77813 | 35171 ft | 552 kts | 131° |
| 2026-05-05 18:11 | 44.23774 | 87.86376 | 35172 ft | 553 kts | 132° |
| 2026-05-05 18:11 | 44.19404 | 87.95109 | 35169 ft | 556 kts | 120° |
| 2026-05-05 18:11 | 44.18052 | 88.00168 | 35167 ft | 561 kts | 106° |
| 2026-05-05 18:12 | 44.17542 | 88.05573 | 35170 ft | 566 kts | 92° |
| 2026-05-05 18:12 | 44.17917 | 88.11034 | 35174 ft | 568 kts | 78° |
| 2026-05-05 18:12 | 44.19022 | 88.16315 | 35176 ft | 569 kts | 70° |
| 2026-05-05 18:13 | 44.21459 | 88.26828 | 35171 ft | 571 kts | 74° |
| 2026-05-05 18:13 | 44.23271 | 88.37606 | 35170 ft | 571 kts | 78° |
| 2026-05-05 18:14 | 44.24745 | 88.48479 | 35171 ft | 570 kts | 79° |
| 2026-05-05 18:14 | 44.26328 | 88.59238 | 35172 ft | 570 kts | 78° |
| 2026-05-05 18:15 | 44.27914 | 88.70086 | 35171 ft | 570 kts | 78° |
| 2026-05-05 18:15 | 44.29480 | 88.80941 | 35171 ft | 570 kts | 78° |
| 2026-05-05 18:16 | 44.31033 | 88.91794 | 35172 ft | 570 kts | 78° |
| 2026-05-05 18:16 | 44.32566 | 89.02588 | 35171 ft | 570 kts | 79° |
| 2026-05-05 18:17 | 44.34101 | 89.13471 | 35171 ft | 571 kts | 79° |
| 2026-05-05 18:17 | 44.35624 | 89.24349 | 35171 ft | 571 kts | 79° |
| 2026-05-05 18:18 | 44.37187 | 89.35237 | 35172 ft | 571 kts | 79° |
| 2026-05-05 18:18 | 44.38665 | 89.46068 | 35171 ft | 571 kts | 79° |
| 2026-05-05 18:19 | 44.40138 | 89.56980 | 35170 ft | 571 kts | 79° |
| 2026-05-05 18:19 | 44.41172 | 89.67954 | 35171 ft | 570 kts | 89° |
| 2026-05-05 18:20 | 44.40253 | 89.78920 | 35172 ft | 568 kts | 108° |
| 2026-05-05 18:20 | 44.37675 | 89.89329 | 35168 ft | 565 kts | 113° |
| 2026-05-05 18:21 | 44.35150 | 89.99634 | 35172 ft | 564 kts | 111° |
| 2026-05-05 18:21 | 44.32805 | 90.10159 | 35171 ft | 563 kts | 109° |
| 2026-05-05 18:22 | 44.30528 | 90.20614 | 35171 ft | 563 kts | 108° |
| 2026-05-05 18:22 | 44.28652 | 90.29300 | 35171 ft | 563 kts | 109° |
| 2026-05-05 18:23 | 44.25966 | 90.41432 | 35172 ft | 563 kts | 109° |
| 2026-05-05 18:23 | 44.23636 | 90.51855 | 35171 ft | 563 kts | 109° |
| 2026-05-05 18:24 | 44.21691 | 90.60514 | 35171 ft | 562 kts | 110° |
| 2026-05-05 18:24 | 44.19391 | 90.70929 | 35171 ft | 562 kts | 110° |
| 2026-05-05 18:25 | 44.16638 | 90.82982 | 35171 ft | 562 kts | 110° |
| 2026-05-05 18:25 | 44.14659 | 90.91599 | 35172 ft | 562 kts | 110° |
| 2026-05-05 18:26 | 44.12276 | 91.01961 | 35171 ft | 562 kts | 110° |
| 2026-05-05 18:26 | 44.09936 | 91.12335 | 35170 ft | 562 kts | 110° |
| 2026-05-05 18:27 | 44.07554 | 91.22683 | 35171 ft | 562 kts | 111° |
| 2026-05-05 18:27 | 44.05154 | 91.33025 | 35172 ft | 562 kts | 111° |
| 2026-05-05 18:28 | 44.01553 | 91.48451 | 35171 ft | 562 kts | 111° |
| 2026-05-05 18:28 | 43.99090 | 91.58748 | 35172 ft | 562 kts | 111° |
| 2026-05-05 18:29 | 43.96619 | 91.69035 | 35171 ft | 562 kts | 111° |
| 2026-05-05 18:29 | 43.94142 | 91.79313 | 35170 ft | 562 kts | 111° |
| 2026-05-05 18:30 | 43.91662 | 91.89586 | 35171 ft | 562 kts | 111° |
| 2026-05-05 18:30 | 43.89261 | 91.99824 | 35166 ft | 564 kts | 112° |
| 2026-05-05 18:31 | 43.86767 | 92.10205 | 35171 ft | 571 kts | 113° |
| 2026-05-05 18:31 | 43.84221 | 92.20693 | 35171 ft | 577 kts | 113° |
| 2026-05-05 18:32 | 43.81649 | 92.31231 | 35170 ft | 578 kts | 113° |
| 2026-05-05 18:32 | 43.79069 | 92.41752 | 35171 ft | 577 kts | 113° |
| 2026-05-05 18:33 | 43.76501 | 92.52175 | 35172 ft | 576 kts | 113° |
| 2026-05-05 18:33 | 43.73936 | 92.62688 | 35171 ft | 577 kts | 113° |
| 2026-05-05 18:34 | 43.71334 | 92.73170 | 35171 ft | 576 kts | 114° |
| 2026-05-05 18:34 | 43.68702 | 92.83626 | 35172 ft | 576 kts | 114° |
| 2026-05-05 18:35 | 43.66081 | 92.94014 | 35171 ft | 576 kts | 114° |
| 2026-05-05 18:35 | 43.63476 | 93.04472 | 35171 ft | 577 kts | 113° |
| 2026-05-05 18:36 | 43.60968 | 93.14983 | 35171 ft | 577 kts | 113° |
| 2026-05-05 18:36 | 43.58430 | 93.25479 | 35172 ft | 577 kts | 113° |
| 2026-05-05 18:37 | 43.55874 | 93.35968 | 35171 ft | 577 kts | 113° |
| 2026-05-05 18:37 | 43.53319 | 93.46447 | 35170 ft | 576 kts | 113° |
| 2026-05-05 18:38 | 43.50847 | 93.56863 | 35171 ft | 576 kts | 113° |
| 2026-05-05 18:38 | 43.48304 | 93.67335 | 35172 ft | 576 kts | 113° |
| 2026-05-05 18:39 | 43.45726 | 93.77840 | 35171 ft | 576 kts | 114° |
| 2026-05-05 18:39 | 43.43165 | 93.88216 | 35170 ft | 576 kts | 114° |
| 2026-05-05 18:40 | 43.40581 | 93.98636 | 35171 ft | 576 kts | 114° |
| 2026-05-05 18:40 | 43.37987 | 94.09050 | 35172 ft | 576 kts | 114° |
| 2026-05-05 18:41 | 43.35383 | 94.19454 | 35171 ft | 576 kts | 114° |
| 2026-05-05 18:41 | 43.32772 | 94.29843 | 35170 ft | 576 kts | 114° |
| 2026-05-05 18:42 | 43.30166 | 94.40163 | 35171 ft | 576 kts | 114° |
| 2026-05-05 18:42 | 43.27536 | 94.50533 | 35172 ft | 575 kts | 114° |
| 2026-05-05 18:43 | 43.24897 | 94.60895 | 35171 ft | 575 kts | 114° |
| 2026-05-05 18:43 | 43.22269 | 94.71259 | 35171 ft | 576 kts | 114° |
| 2026-05-05 18:44 | 43.19631 | 94.81605 | 35171 ft | 575 kts | 114° |
| 2026-05-05 18:44 | 43.16961 | 94.91873 | 35176 ft | 576 kts | 114° |
| 2026-05-05 18:45 | 43.14210 | 95.02163 | 35175 ft | 572 kts | 119° |
| 2026-05-05 18:45 | 43.09984 | 95.11179 | 35176 ft | 557 kts | 139° |
| 2026-05-05 18:46 | 43.07157 | 95.14714 | 35177 ft | 546 kts | 150° |
| 2026-05-05 18:46 | 43.04010 | 95.17541 | 35180 ft | 539 kts | 157° |
| 2026-05-05 18:46 | 42.97625 | 95.22695 | 35177 ft | 535 kts | 156° |
| 2026-05-05 18:47 | 42.91386 | 95.28214 | 35178 ft | 535 kts | 154° |
| 2026-05-05 18:47 | 42.85217 | 95.33959 | 35179 ft | 538 kts | 153° |
| 2026-05-05 18:48 | 42.79034 | 95.39737 | 35178 ft | 539 kts | 153° |
| 2026-05-05 18:48 | 42.72878 | 95.45433 | 35180 ft | 539 kts | 153° |
| 2026-05-05 18:49 | 42.66672 | 95.51142 | 35181 ft | 539 kts | 153° |
| 2026-05-05 18:49 | 42.60475 | 95.56865 | 35181 ft | 539 kts | 153° |
| 2026-05-05 18:50 | 42.54255 | 95.62549 | 35182 ft | 539 kts | 154° |
| 2026-05-05 18:50 | 42.48031 | 95.68213 | 35183 ft | 539 kts | 153° |
| 2026-05-05 18:51 | 42.41992 | 95.74134 | 35178 ft | 547 kts | 142° |
| 2026-05-05 18:51 | 42.39552 | 95.78141 | 35188 ft | 555 kts | 128° |
| 2026-05-05 18:51 | 42.37842 | 95.82836 | 35160 ft | 563 kts | 114° |
| 2026-05-05 18:52 | 42.36947 | 95.88029 | 35148 ft | 570 kts | 99° |
| 2026-05-05 18:52 | 42.36900 | 95.93409 | 35150 ft | 576 kts | 87° |
| 2026-05-05 18:52 | 42.37723 | 96.04217 | 35146 ft | 581 kts | 87° |
| 2026-05-05 18:53 | 42.37868 | 96.15196 | 35144 ft | 585 kts | 93° |
| 2026-05-05 18:53 | 42.37476 | 96.26126 | 35140 ft | 586 kts | 95° |
| 2026-05-05 18:54 | 42.37103 | 96.37134 | 35139 ft | 585 kts | 94° |
| 2026-05-05 18:54 | 42.36755 | 96.48119 | 35138 ft | 585 kts | 94° |
| 2026-05-05 18:55 | 42.36402 | 96.59092 | 35135 ft | 585 kts | 94° |
| 2026-05-05 18:55 | 42.36038 | 96.70077 | 35132 ft | 585 kts | 94° |
| 2026-05-05 18:56 | 42.35667 | 96.80987 | 35131 ft | 584 kts | 94° |
| 2026-05-05 18:56 | 42.35283 | 96.91959 | 35130 ft | 584 kts | 94° |
| 2026-05-05 18:57 | 42.34889 | 97.02935 | 35127 ft | 584 kts | 94° |
| 2026-05-05 18:57 | 42.34484 | 97.13894 | 35125 ft | 584 kts | 95° |
| 2026-05-05 18:58 | 42.34072 | 97.24785 | 35123 ft | 584 kts | 95° |
| 2026-05-05 18:58 | 42.33650 | 97.35680 | 35170 ft | 578 kts | 94° |
| 2026-05-05 18:59 | 42.33218 | 97.46547 | 35171 ft | 580 kts | 94° |
| 2026-05-05 18:59 | 42.32775 | 97.57434 | 35170 ft | 580 kts | 94° |
| 2026-05-05 19:00 | 42.32322 | 97.68312 | 35171 ft | 580 kts | 94° |
| 2026-05-05 19:00 | 42.31862 | 97.79121 | 35172 ft | 580 kts | 94° |
| 2026-05-05 19:01 | 42.31396 | 97.90001 | 35171 ft | 580 kts | 94° |
| 2026-05-05 19:01 | 42.30951 | 98.00884 | 35170 ft | 580 kts | 95° |
| 2026-05-05 19:02 | 42.30437 | 98.11754 | 35171 ft | 580 kts | 95° |
| 2026-05-05 19:02 | 42.29916 | 98.22619 | 35172 ft | 580 kts | 95° |
| 2026-05-05 19:03 | 42.29397 | 98.33415 | 35171 ft | 580 kts | 95° |
| 2026-05-05 19:03 | 42.28825 | 98.44282 | 35170 ft | 580 kts | 95° |
| 2026-05-05 19:04 | 42.28234 | 98.55144 | 35171 ft | 580 kts | 95° |
| 2026-05-05 19:04 | 42.27632 | 98.66004 | 35172 ft | 580 kts | 95° |
| 2026-05-05 19:05 | 42.27025 | 98.76788 | 35070 ft | 580 kts | 96° |
| 2026-05-05 19:05 | 42.26478 | 98.87631 | 35014 ft | 578 kts | 96° |
| 2026-05-05 19:06 | 42.25908 | 98.98466 | 35012 ft | 579 kts | 96° |
| 2026-05-05 19:06 | 42.25303 | 99.09297 | 35014 ft | 579 kts | 96° |
| 2026-05-05 19:07 | 42.24684 | 99.20070 | 35015 ft | 579 kts | 96° |
| 2026-05-05 19:07 | 42.24051 | 99.30905 | 35119 ft | 580 kts | 96° |
| 2026-05-05 19:08 | 42.23729 | 99.36326 | 35328 ft | 579 kts | 96° |
| 2026-05-05 19:08 | 42.23406 | 99.41747 | 35498 ft | 579 kts | 96° |
| 2026-05-05 19:08 | 42.23079 | 99.47171 | 35655 ft | 580 kts | 96° |
| 2026-05-05 19:08 | 42.22751 | 99.52585 | 35817 ft | 580 kts | 97° |
| 2026-05-05 19:09 | 42.22419 | 99.58006 | 35978 ft | 580 kts | 97° |
| 2026-05-05 19:09 | 42.22085 | 99.63431 | 36137 ft | 580 kts | 97° |
| 2026-05-05 19:09 | 42.21749 | 99.68848 | 36296 ft | 580 kts | 97° |
| 2026-05-05 19:09 | 42.21414 | 99.74200 | 36451 ft | 580 kts | 97° |
| 2026-05-05 19:10 | 42.21072 | 99.79618 | 36608 ft | 580 kts | 97° |
| 2026-05-05 19:10 | 42.20728 | 99.85037 | 36768 ft | 580 kts | 97° |
| 2026-05-05 19:10 | 42.20381 | 99.90459 | 36929 ft | 580 kts | 97° |
| 2026-05-05 19:10 | 42.20031 | 99.95877 | 37013 ft | 580 kts | 97° |
| 2026-05-05 19:11 | 42.19329 | 100.06644 | 37025 ft | 580 kts | 97° |
| 2026-05-05 19:11 | 42.18613 | 100.17479 | 37030 ft | 580 kts | 97° |
| 2026-05-05 19:12 | 42.17885 | 100.28326 | 37038 ft | 581 kts | 98° |
| 2026-05-05 19:12 | 42.17146 | 100.39178 | 37037 ft | 582 kts | 98° |
| 2026-05-05 19:13 | 42.16396 | 100.50051 | 37039 ft | 582 kts | 98° |
| 2026-05-05 19:13 | 42.15642 | 100.60841 | 37039 ft | 582 kts | 98° |
| 2026-05-05 19:14 | 42.14919 | 100.71693 | 37040 ft | 582 kts | 98° |
| 2026-05-05 19:14 | 42.14122 | 100.82553 | 37041 ft | 582 kts | 98° |
| 2026-05-05 19:15 | 42.13313 | 100.93395 | 37042 ft | 582 kts | 98° |
| 2026-05-05 19:15 | 42.12509 | 101.04177 | 37043 ft | 582 kts | 98° |
| 2026-05-05 19:16 | 42.11882 | 101.15045 | 37043 ft | 583 kts | 95° |
| 2026-05-05 19:16 | 42.11441 | 101.25946 | 37045 ft | 583 kts | 96° |
| 2026-05-05 19:17 | 42.10937 | 101.36841 | 37045 ft | 583 kts | 96° |
| 2026-05-05 19:17 | 42.10399 | 101.47740 | 37048 ft | 583 kts | 96° |
| 2026-05-05 19:18 | 42.09909 | 101.58562 | 37048 ft | 583 kts | 95° |
| 2026-05-05 19:18 | 42.09418 | 101.69466 | 36979 ft | 586 kts | 95° |
| 2026-05-05 19:19 | 42.08882 | 101.80470 | 36964 ft | 591 kts | 95° |
| 2026-05-05 19:19 | 42.08320 | 101.91532 | 36965 ft | 593 kts | 95° |
| 2026-05-05 19:20 | 42.07748 | 102.02543 | 36964 ft | 593 kts | 95° |
| 2026-05-05 19:20 | 42.07161 | 102.13606 | 36965 ft | 593 kts | 95° |
| 2026-05-05 19:21 | 42.06564 | 102.24671 | 36964 ft | 593 kts | 95° |
| 2026-05-05 19:21 | 42.05956 | 102.35728 | 36965 ft | 593 kts | 95° |
| 2026-05-05 19:22 | 42.05337 | 102.46776 | 36964 ft | 593 kts | 95° |
| 2026-05-05 19:22 | 42.04711 | 102.57774 | 36964 ft | 593 kts | 96° |
| 2026-05-05 19:23 | 42.04071 | 102.68828 | 36965 ft | 593 kts | 96° |
| 2026-05-05 19:23 | 42.03420 | 102.79877 | 36964 ft | 593 kts | 96° |
| 2026-05-05 19:24 | 42.02759 | 102.90929 | 36965 ft | 593 kts | 96° |
| 2026-05-05 19:24 | 42.02088 | 103.01964 | 36964 ft | 593 kts | 96° |
| 2026-05-05 19:25 | 42.01414 | 103.12867 | 36957 ft | 593 kts | 96° |
| 2026-05-05 19:25 | 42.00713 | 103.24026 | 36907 ft | 597 kts | 96° |
| 2026-05-05 19:26 | 42.00003 | 103.35166 | 36906 ft | 599 kts | 96° |
| 2026-05-05 19:26 | 41.99282 | 103.46318 | 36905 ft | 598 kts | 96° |
| 2026-05-05 19:27 | 41.98550 | 103.57452 | 36906 ft | 598 kts | 96° |
| 2026-05-05 19:27 | 41.97813 | 103.68508 | 36905 ft | 598 kts | 96° |
| 2026-05-05 19:28 | 41.97060 | 103.79630 | 36906 ft | 598 kts | 96° |
| 2026-05-05 19:28 | 41.96296 | 103.90757 | 36905 ft | 598 kts | 97° |
| 2026-05-05 19:29 | 41.95522 | 104.01886 | 36906 ft | 598 kts | 97° |
| 2026-05-05 19:29 | 41.94737 | 104.12996 | 36905 ft | 598 kts | 97° |
| 2026-05-05 19:30 | 41.93946 | 104.24049 | 36906 ft | 598 kts | 97° |
| 2026-05-05 19:30 | 41.93139 | 104.35167 | 36905 ft | 598 kts | 97° |
| 2026-05-05 19:31 | 41.92322 | 104.46274 | 36905 ft | 598 kts | 97° |
| 2026-05-05 19:31 | 41.91500 | 104.57302 | 36905 ft | 598 kts | 97° |
| 2026-05-05 19:32 | 41.90660 | 104.68432 | 36905 ft | 601 kts | 96° |
| 2026-05-05 19:32 | 41.89806 | 104.79590 | 36906 ft | 601 kts | 96° |
| 2026-05-05 19:33 | 41.88942 | 104.90750 | 36905 ft | 601 kts | 96° |
| 2026-05-05 19:33 | 41.88068 | 105.01881 | 36906 ft | 600 kts | 96° |
| 2026-05-05 19:34 | 41.87188 | 105.12950 | 36905 ft | 600 kts | 96° |
| 2026-05-05 19:35 | 41.85841 | 105.29653 | 36905 ft | 600 kts | 96° |
| 2026-05-05 19:35 | 41.84928 | 105.40794 | 36906 ft | 600 kts | 96° |
| 2026-05-05 19:36 | 41.84006 | 105.51915 | 36905 ft | 600 kts | 96° |
| 2026-05-05 19:36 | 41.83079 | 105.62967 | 36906 ft | 600 kts | 96° |
| 2026-05-05 19:37 | 41.82135 | 105.74089 | 36905 ft | 600 kts | 97° |
| 2026-05-05 19:37 | 41.81179 | 105.85215 | 36906 ft | 600 kts | 97° |
| 2026-05-05 19:38 | 41.80220 | 105.96252 | 36905 ft | 600 kts | 97° |
| 2026-05-05 19:38 | 41.79244 | 106.07367 | 36850 ft | 600 kts | 97° |
| 2026-05-05 19:39 | 41.78260 | 106.18440 | 36817 ft | 597 kts | 97° |
| 2026-05-05 19:39 | 41.77269 | 106.29477 | 36817 ft | 597 kts | 97° |
| 2026-05-05 19:40 | 41.76266 | 106.40515 | 36817 ft | 598 kts | 97° |
| 2026-05-05 19:40 | 41.75259 | 106.51488 | 36817 ft | 598 kts | 98° |
| 2026-05-05 19:41 | 41.74233 | 106.62542 | 36816 ft | 598 kts | 98° |
| 2026-05-05 19:41 | 41.73198 | 106.73584 | 36817 ft | 598 kts | 98° |
| 2026-05-05 19:42 | 41.72153 | 106.84615 | 36816 ft | 598 kts | 98° |
| 2026-05-05 19:42 | 41.71096 | 106.95649 | 36817 ft | 598 kts | 98° |
| 2026-05-05 19:43 | 41.70029 | 107.06682 | 36816 ft | 598 kts | 98° |
| 2026-05-05 19:43 | 41.68960 | 107.17627 | 36817 ft | 598 kts | 98° |
| 2026-05-05 19:44 | 41.67872 | 107.28650 | 36816 ft | 598 kts | 98° |
| 2026-05-05 19:44 | 41.66773 | 107.39669 | 36817 ft | 598 kts | 98° |
| 2026-05-05 19:45 | 41.65666 | 107.50669 | 36816 ft | 594 kts | 98° |
| 2026-05-05 19:45 | 41.64562 | 107.61528 | 36817 ft | 593 kts | 98° |
| 2026-05-05 19:46 | 41.63439 | 107.72472 | 36816 ft | 595 kts | 98° |
| 2026-05-05 19:46 | 41.62303 | 107.83428 | 36817 ft | 595 kts | 98° |
| 2026-05-05 19:47 | 41.61158 | 107.94375 | 36816 ft | 595 kts | 98° |
| 2026-05-05 19:47 | 41.60010 | 108.05248 | 36817 ft | 595 kts | 98° |
| 2026-05-05 19:48 | 41.58844 | 108.16192 | 36816 ft | 595 kts | 98° |
| 2026-05-05 19:48 | 41.57667 | 108.27129 | 36817 ft | 595 kts | 99° |
| 2026-05-05 19:49 | 41.56482 | 108.38050 | 36816 ft | 595 kts | 99° |
| 2026-05-05 19:49 | 41.55291 | 108.48919 | 36817 ft | 595 kts | 99° |
| 2026-05-05 19:50 | 41.54084 | 108.59838 | 36816 ft | 595 kts | 99° |
| 2026-05-05 19:50 | 41.52867 | 108.70757 | 36817 ft | 595 kts | 99° |
| 2026-05-05 19:51 | 41.51638 | 108.81678 | 36817 ft | 595 kts | 99° |
| 2026-05-05 19:51 | 41.50399 | 108.92591 | 36821 ft | 594 kts | 99° |
| 2026-05-05 19:51 | 41.49784 | 108.97984 | 37059 ft | 583 kts | 98° |
| 2026-05-05 19:52 | 41.49181 | 109.03239 | 37010 ft | 580 kts | 98° |
| 2026-05-05 19:52 | 41.48570 | 109.08544 | 36881 ft | 578 kts | 98° |
| 2026-05-05 19:52 | 41.47959 | 109.13833 | 36842 ft | 574 kts | 98° |
| 2026-05-05 19:53 | 41.46736 | 109.24336 | 36818 ft | 573 kts | 98° |
| 2026-05-05 19:53 | 41.45504 | 109.34834 | 36816 ft | 574 kts | 98° |
| 2026-05-05 19:54 | 41.44260 | 109.45358 | 36817 ft | 575 kts | 98° |
| 2026-05-05 19:54 | 41.43015 | 109.55797 | 36816 ft | 574 kts | 99° |
| 2026-05-05 19:55 | 41.41754 | 109.66288 | 36817 ft | 574 kts | 99° |
| 2026-05-05 19:55 | 41.40482 | 109.76783 | 36816 ft | 573 kts | 99° |
| 2026-05-05 19:56 | 41.39204 | 109.87252 | 36817 ft | 573 kts | 99° |
| 2026-05-05 19:56 | 41.37923 | 109.97659 | 36817 ft | 573 kts | 99° |
| 2026-05-05 19:57 | 41.36628 | 110.08106 | 36817 ft | 572 kts | 99° |
| 2026-05-05 19:57 | 41.35321 | 110.18562 | 36817 ft | 572 kts | 99° |
| 2026-05-05 19:58 | 41.34006 | 110.29007 | 36816 ft | 572 kts | 99° |
| 2026-05-05 19:58 | 41.32692 | 110.39365 | 36817 ft | 571 kts | 99° |
| 2026-05-05 19:59 | 41.31362 | 110.49771 | 36816 ft | 571 kts | 99° |
| 2026-05-05 19:59 | 41.30022 | 110.60173 | 36817 ft | 570 kts | 99° |
| 2026-05-05 20:00 | 41.28674 | 110.70564 | 36816 ft | 570 kts | 99° |
| 2026-05-05 20:00 | 41.27317 | 110.80952 | 36817 ft | 570 kts | 99° |
| 2026-05-05 20:01 | 41.25960 | 110.91258 | 36816 ft | 570 kts | 99° |
| 2026-05-05 20:01 | 41.24584 | 111.01636 | 36817 ft | 570 kts | 99° |
| 2026-05-05 20:02 | 41.23201 | 111.11998 | 36816 ft | 570 kts | 100° |
| 2026-05-05 20:02 | 41.21807 | 111.22358 | 36817 ft | 570 kts | 100° |
| 2026-05-05 20:03 | 41.20414 | 111.32649 | 36817 ft | 570 kts | 100° |
| 2026-05-05 20:03 | 41.19003 | 111.42992 | 36816 ft | 570 kts | 100° |
| 2026-05-05 20:04 | 41.17582 | 111.53337 | 36817 ft | 569 kts | 100° |
| 2026-05-05 20:04 | 41.16152 | 111.63679 | 36816 ft | 569 kts | 100° |
| 2026-05-05 20:05 | 41.14714 | 111.74007 | 36817 ft | 569 kts | 100° |
| 2026-05-05 20:05 | 41.13276 | 111.84263 | 36816 ft | 570 kts | 100° |
| 2026-05-05 20:06 | 41.11817 | 111.94597 | 36817 ft | 570 kts | 101° |
| 2026-05-05 20:06 | 41.10350 | 112.04920 | 36816 ft | 570 kts | 101° |
| 2026-05-05 20:07 | 41.08876 | 112.15222 | 36817 ft | 570 kts | 101° |
| 2026-05-05 20:07 | 41.07400 | 112.25475 | 36817 ft | 570 kts | 101° |
| 2026-05-05 20:08 | 41.05906 | 112.35783 | 36817 ft | 570 kts | 101° |
| 2026-05-05 20:08 | 41.04404 | 112.46075 | 36817 ft | 570 kts | 101° |
| 2026-05-05 20:09 | 41.02891 | 112.56374 | 36816 ft | 570 kts | 101° |
| 2026-05-05 20:09 | 41.01369 | 112.66669 | 36817 ft | 570 kts | 101° |
| 2026-05-05 20:10 | 40.99847 | 112.76895 | 36816 ft | 570 kts | 101° |
| 2026-05-05 20:10 | 40.98306 | 112.87183 | 36817 ft | 570 kts | 101° |
| 2026-05-05 20:11 | 40.96757 | 112.97463 | 36816 ft | 570 kts | 101° |
| 2026-05-05 20:11 | 40.95199 | 113.07737 | 36817 ft | 570 kts | 101° |
| 2026-05-05 20:12 | 40.93641 | 113.17942 | 36817 ft | 570 kts | 101° |
| 2026-05-05 20:12 | 40.92067 | 113.28195 | 36817 ft | 569 kts | 101° |
| 2026-05-05 20:13 | 40.90484 | 113.38436 | 36817 ft | 568 kts | 102° |
| 2026-05-05 20:13 | 40.88892 | 113.48676 | 36816 ft | 568 kts | 102° |
| 2026-05-05 20:14 | 40.87292 | 113.58898 | 36817 ft | 568 kts | 102° |
| 2026-05-05 20:14 | 40.85693 | 113.69056 | 36816 ft | 568 kts | 102° |
| 2026-05-05 20:15 | 40.84076 | 113.79266 | 36817 ft | 568 kts | 102° |
| 2026-05-05 20:15 | 40.82449 | 113.89479 | 36816 ft | 568 kts | 102° |
| 2026-05-05 20:16 | 40.80815 | 113.99672 | 36817 ft | 568 kts | 102° |
| 2026-05-05 20:16 | 40.79182 | 114.09801 | 36816 ft | 568 kts | 102° |
| 2026-05-05 20:17 | 40.77519 | 114.20055 | 36817 ft | 568 kts | 102° |
| 2026-05-05 20:17 | 40.75859 | 114.30226 | 36817 ft | 567 kts | 102° |
| 2026-05-05 20:18 | 40.74188 | 114.40405 | 36816 ft | 567 kts | 102° |
| 2026-05-05 20:18 | 40.72523 | 114.50493 | 36817 ft | 567 kts | 102° |
| 2026-05-05 20:19 | 40.70835 | 114.60654 | 36762 ft | 567 kts | 102° |
| 2026-05-05 20:19 | 40.69157 | 114.70706 | 36715 ft | 558 kts | 102° |
| 2026-05-05 20:20 | 40.67484 | 114.80672 | 36706 ft | 557 kts | 102° |
| 2026-05-05 20:20 | 40.65808 | 114.90591 | 36703 ft | 559 kts | 102° |
| 2026-05-05 20:21 | 40.64114 | 115.00566 | 36675 ft | 558 kts | 101° |
| 2026-05-05 20:21 | 40.62419 | 115.10491 | 36664 ft | 553 kts | 101° |
| 2026-05-05 20:22 | 40.60727 | 115.20349 | 36663 ft | 552 kts | 101° |
| 2026-05-05 20:22 | 40.59025 | 115.30204 | 36665 ft | 553 kts | 101° |
| 2026-05-05 20:23 | 40.57324 | 115.40004 | 36664 ft | 553 kts | 101° |
| 2026-05-05 20:23 | 40.55602 | 115.49870 | 36666 ft | 553 kts | 101° |
| 2026-05-05 20:24 | 40.53873 | 115.59727 | 36665 ft | 553 kts | 101° |
| 2026-05-05 20:24 | 40.52136 | 115.69575 | 36667 ft | 553 kts | 102° |
| 2026-05-05 20:25 | 40.50389 | 115.79424 | 36667 ft | 553 kts | 102° |
| 2026-05-05 20:25 | 40.48648 | 115.89191 | 36667 ft | 553 kts | 102° |
| 2026-05-05 20:26 | 40.46884 | 115.99030 | 36669 ft | 553 kts | 101° |
| 2026-05-05 20:26 | 40.45114 | 116.08862 | 36670 ft | 553 kts | 101° |
| 2026-05-05 20:27 | 40.43334 | 116.18690 | 36671 ft | 553 kts | 101° |
| 2026-05-05 20:27 | 40.41849 | 116.26852 | 36671 ft | 553 kts | 101° |
| 2026-05-05 20:28 | 40.40069 | 116.36663 | 36669 ft | 553 kts | 101° |
| 2026-05-05 20:28 | 40.38293 | 116.46480 | 36671 ft | 553 kts | 102° |
| 2026-05-05 20:29 | 40.36466 | 116.56284 | 36670 ft | 553 kts | 102° |
| 2026-05-05 20:29 | 40.34633 | 116.66076 | 36670 ft | 553 kts | 102° |
| 2026-05-05 20:30 | 40.32799 | 116.75873 | 36670 ft | 553 kts | 102° |
| 2026-05-05 20:30 | 40.31156 | 116.85643 | 36670 ft | 553 kts | 99° |
| 2026-05-05 20:31 | 40.29587 | 116.95501 | 36671 ft | 553 kts | 100° |
| 2026-05-05 20:31 | 40.27975 | 117.05341 | 36671 ft | 552 kts | 100° |
| 2026-05-05 20:32 | 40.26341 | 117.15170 | 36673 ft | 553 kts | 100° |
| 2026-05-05 20:32 | 40.24750 | 117.24936 | 36673 ft | 552 kts | 99° |
| 2026-05-05 20:33 | 40.23166 | 117.34779 | 36675 ft | 552 kts | 100° |
| 2026-05-05 20:33 | 40.21546 | 117.44594 | 36676 ft | 551 kts | 100° |
| 2026-05-05 20:34 | 40.19909 | 117.54393 | 36677 ft | 551 kts | 100° |
| 2026-05-05 20:34 | 40.18273 | 117.64109 | 36679 ft | 551 kts | 100° |
| 2026-05-05 20:35 | 40.16616 | 117.73894 | 36679 ft | 551 kts | 100° |
| 2026-05-05 20:35 | 40.14951 | 117.83670 | 36681 ft | 551 kts | 100° |
| 2026-05-05 20:36 | 40.13279 | 117.93432 | 36682 ft | 551 kts | 100° |
| 2026-05-05 20:36 | 40.11609 | 118.03129 | 36682 ft | 551 kts | 100° |
| 2026-05-05 20:37 | 40.09921 | 118.12877 | 36684 ft | 551 kts | 100° |
| 2026-05-05 20:37 | 40.08211 | 118.22699 | 36683 ft | 551 kts | 100° |
| 2026-05-05 20:38 | 40.06507 | 118.32439 | 36684 ft | 550 kts | 101° |
| 2026-05-05 20:38 | 40.04806 | 118.42111 | 36684 ft | 550 kts | 101° |
| 2026-05-05 20:39 | 40.03084 | 118.51844 | 36684 ft | 550 kts | 101° |
| 2026-05-05 20:39 | 40.01355 | 118.61575 | 36685 ft | 551 kts | 101° |
| 2026-05-05 20:40 | 39.99628 | 118.71240 | 36684 ft | 551 kts | 101° |
| 2026-05-05 20:40 | 39.97883 | 118.80952 | 36688 ft | 550 kts | 101° |
| 2026-05-05 20:41 | 39.96130 | 118.90662 | 36688 ft | 550 kts | 101° |
| 2026-05-05 20:41 | 39.94371 | 119.00357 | 36687 ft | 550 kts | 101° |
| 2026-05-05 20:42 | 39.92602 | 119.10057 | 36688 ft | 550 kts | 101° |
| 2026-05-05 20:42 | 39.90826 | 119.19744 | 36688 ft | 550 kts | 101° |
| 2026-05-05 20:43 | 39.89052 | 119.29371 | 36688 ft | 550 kts | 101° |
| 2026-05-05 20:43 | 39.87261 | 119.39046 | 36689 ft | 550 kts | 101° |
| 2026-05-05 20:44 | 39.85459 | 119.48728 | 36689 ft | 550 kts | 101° |
| 2026-05-05 20:44 | 39.83650 | 119.58402 | 36688 ft | 550 kts | 101° |
| 2026-05-05 20:45 | 39.80935 | 119.72830 | 36688 ft | 550 kts | 102° |
| 2026-05-05 20:45 | 39.79105 | 119.82494 | 36689 ft | 550 kts | 102° |
| 2026-05-05 20:46 | 39.77268 | 119.92147 | 36689 ft | 550 kts | 102° |
| 2026-05-05 20:46 | 39.75435 | 120.01736 | 36703 ft | 549 kts | 102° |
| 2026-05-05 20:47 | 39.73603 | 120.11273 | 36781 ft | 541 kts | 103° |
| 2026-05-05 20:47 | 39.71786 | 120.20684 | 36816 ft | 534 kts | 103° |
| 2026-05-05 20:48 | 39.69978 | 120.30008 | 36818 ft | 531 kts | 103° |
| 2026-05-05 20:48 | 39.68165 | 120.39314 | 36821 ft | 532 kts | 103° |
| 2026-05-05 20:49 | 39.66354 | 120.48561 | 36825 ft | 532 kts | 104° |
| 2026-05-05 20:49 | 39.64527 | 120.57854 | 36827 ft | 531 kts | 104° |
| 2026-05-05 20:50 | 39.62695 | 120.67131 | 36829 ft | 530 kts | 104° |
| 2026-05-05 20:50 | 39.60857 | 120.76392 | 36832 ft | 530 kts | 104° |
| 2026-05-05 20:51 | 39.59013 | 120.85642 | 36835 ft | 530 kts | 104° |
| 2026-05-05 20:51 | 39.57178 | 120.94807 | 36837 ft | 529 kts | 104° |
| 2026-05-05 20:52 | 39.55320 | 121.04046 | 36837 ft | 529 kts | 104° |
| 2026-05-05 20:52 | 39.53458 | 121.13259 | 36839 ft | 529 kts | 104° |
| 2026-05-05 20:53 | 39.51591 | 121.22462 | 36841 ft | 528 kts | 104° |
| 2026-05-05 20:53 | 39.49719 | 121.31649 | 36845 ft | 528 kts | 105° |
| 2026-05-05 20:54 | 39.47848 | 121.40784 | 36846 ft | 528 kts | 105° |
| 2026-05-05 20:54 | 39.45962 | 121.49957 | 36845 ft | 528 kts | 105° |
| 2026-05-05 20:55 | 39.44069 | 121.59127 | 36845 ft | 528 kts | 105° |
| 2026-05-05 20:55 | 39.42167 | 121.68294 | 36846 ft | 527 kts | 105° |
| 2026-05-05 20:56 | 39.40272 | 121.77394 | 36845 ft | 527 kts | 105° |
| 2026-05-05 20:56 | 39.38357 | 121.86546 | 36845 ft | 528 kts | 105° |
| 2026-05-05 20:57 | 39.36435 | 121.95696 | 36846 ft | 527 kts | 105° |
| 2026-05-05 20:57 | 39.34505 | 122.04843 | 36846 ft | 527 kts | 105° |
| 2026-05-05 20:58 | 39.32569 | 122.13978 | 36847 ft | 527 kts | 105° |
| 2026-05-05 20:58 | 39.30626 | 122.23109 | 36846 ft | 527 kts | 105° |
| 2026-05-05 20:59 | 39.28692 | 122.32161 | 36846 ft | 528 kts | 105° |
| 2026-05-05 20:59 | 39.26730 | 122.41302 | 36846 ft | 528 kts | 105° |
| 2026-05-05 21:00 | 39.24766 | 122.50418 | 36846 ft | 528 kts | 105° |
| 2026-05-05 21:00 | 39.22793 | 122.59535 | 36847 ft | 528 kts | 105° |
| 2026-05-05 21:01 | 39.20823 | 122.68603 | 36846 ft | 528 kts | 105° |
| 2026-05-05 21:01 | 39.18833 | 122.77720 | 36846 ft | 528 kts | 106° |
| 2026-05-05 21:02 | 39.16838 | 122.86825 | 36868 ft | 527 kts | 105° |
| 2026-05-05 21:02 | 39.14849 | 122.95871 | 36904 ft | 523 kts | 105° |
| 2026-05-05 21:03 | 39.12861 | 123.04871 | 36911 ft | 523 kts | 105° |
| 2026-05-05 21:03 | 39.10861 | 123.13889 | 36918 ft | 523 kts | 105° |
| 2026-05-05 21:04 | 39.08870 | 123.22831 | 36924 ft | 523 kts | 105° |
| 2026-05-05 21:04 | 39.06858 | 123.31829 | 36930 ft | 523 kts | 105° |
| 2026-05-05 21:05 | 39.04843 | 123.40804 | 36937 ft | 522 kts | 105° |
| 2026-05-05 21:05 | 39.02820 | 123.49782 | 36943 ft | 522 kts | 105° |
| 2026-05-05 21:06 | 39.00806 | 123.58683 | 36949 ft | 522 kts | 105° |
| 2026-05-05 21:06 | 38.98772 | 123.67640 | 36954 ft | 522 kts | 105° |
| 2026-05-05 21:07 | 38.96735 | 123.76573 | 36958 ft | 521 kts | 105° |
| 2026-05-05 21:07 | 38.94687 | 123.85518 | 36963 ft | 521 kts | 106° |
| 2026-05-05 21:08 | 38.92636 | 123.94440 | 36974 ft | 521 kts | 105° |
| 2026-05-05 21:08 | 38.90598 | 124.03276 | 37004 ft | 519 kts | 105° |
| 2026-05-05 21:09 | 38.88542 | 124.12150 | 37005 ft | 519 kts | 105° |
| 2026-05-05 21:09 | 38.86480 | 124.21021 | 37013 ft | 519 kts | 106° |
| 2026-05-05 21:10 | 38.84409 | 124.29893 | 37023 ft | 519 kts | 106° |
| 2026-05-05 21:10 | 38.82332 | 124.38762 | 37024 ft | 519 kts | 106° |
| 2026-05-05 21:11 | 38.80261 | 124.47569 | 37023 ft | 519 kts | 106° |
| 2026-05-05 21:11 | 38.78168 | 124.56433 | 37023 ft | 519 kts | 106° |
| 2026-05-05 21:12 | 38.76071 | 124.65284 | 37022 ft | 519 kts | 106° |
| 2026-05-05 21:12 | 38.73966 | 124.74133 | 37022 ft | 519 kts | 106° |
| 2026-05-05 21:13 | 38.71869 | 124.82918 | 37022 ft | 519 kts | 107° |
| 2026-05-05 21:13 | 38.69750 | 124.91758 | 37022 ft | 519 kts | 107° |
| 2026-05-05 21:14 | 38.67626 | 125.00591 | 37022 ft | 519 kts | 107° |
| 2026-05-05 21:14 | 38.65492 | 125.09428 | 37022 ft | 519 kts | 107° |
| 2026-05-05 21:15 | 38.63369 | 125.18193 | 37022 ft | 519 kts | 107° |
| 2026-05-05 21:15 | 38.61225 | 125.27008 | 37023 ft | 519 kts | 107° |
| 2026-05-05 21:16 | 38.59072 | 125.35826 | 37024 ft | 520 kts | 107° |
| 2026-05-05 21:16 | 38.56913 | 125.44640 | 37025 ft | 520 kts | 107° |
| 2026-05-05 21:17 | 38.54748 | 125.53443 | 37026 ft | 520 kts | 107° |
| 2026-05-05 21:17 | 38.52590 | 125.62189 | 37044 ft | 520 kts | 107° |
| 2026-05-05 21:18 | 38.50410 | 125.70989 | 37060 ft | 520 kts | 107° |
| 2026-05-05 21:18 | 38.48218 | 125.79807 | 37065 ft | 521 kts | 107° |
| 2026-05-05 21:19 | 38.46036 | 125.88553 | 37070 ft | 521 kts | 107° |
| 2026-05-05 21:19 | 38.43833 | 125.97352 | 37075 ft | 521 kts | 107° |
| 2026-05-05 21:20 | 38.41621 | 126.06155 | 37079 ft | 521 kts | 108° |
| 2026-05-05 21:20 | 38.39402 | 126.14954 | 37098 ft | 521 kts | 108° |
| 2026-05-05 21:21 | 38.37177 | 126.23746 | 37111 ft | 522 kts | 108° |
| 2026-05-05 21:21 | 38.34957 | 126.32486 | 37112 ft | 522 kts | 108° |
| 2026-05-05 21:22 | 38.32717 | 126.41274 | 37112 ft | 522 kts | 108° |
| 2026-05-05 21:22 | 38.30469 | 126.50063 | 37113 ft | 522 kts | 108° |
| 2026-05-05 21:23 | 38.28353 | 126.58884 | 37106 ft | 521 kts | 103° |
| 2026-05-05 21:23 | 38.27169 | 126.67917 | 37113 ft | 521 kts | 97° |
| 2026-05-05 21:24 | 38.26326 | 126.77074 | 37112 ft | 521 kts | 96° |
| 2026-05-05 21:24 | 38.25577 | 126.86249 | 37112 ft | 521 kts | 95° |
| 2026-05-05 21:25 | 38.24824 | 126.95413 | 37103 ft | 521 kts | 96° |
| 2026-05-05 21:25 | 38.24067 | 127.04524 | 37097 ft | 522 kts | 96° |
| 2026-05-05 21:26 | 38.23297 | 127.13699 | 37084 ft | 521 kts | 96° |
| 2026-05-05 21:26 | 38.22520 | 127.22865 | 37080 ft | 521 kts | 96° |
| 2026-05-05 21:27 | 38.21737 | 127.32026 | 37075 ft | 521 kts | 96° |
| 2026-05-05 21:27 | 38.20947 | 127.41184 | 37069 ft | 521 kts | 96° |
| 2026-05-05 21:28 | 38.20155 | 127.50272 | 37061 ft | 520 kts | 96° |
| 2026-05-05 21:28 | 38.19352 | 127.59413 | 37053 ft | 520 kts | 96° |
| 2026-05-05 21:29 | 38.18543 | 127.68537 | 37052 ft | 520 kts | 96° |
| 2026-05-05 21:29 | 38.17726 | 127.77667 | 37049 ft | 520 kts | 96° |
| 2026-05-05 21:30 | 38.16906 | 127.86749 | 37042 ft | 521 kts | 96° |
| 2026-05-05 21:30 | 38.16072 | 127.95899 | 37034 ft | 521 kts | 97° |
| 2026-05-05 21:31 | 38.15232 | 128.05048 | 37031 ft | 521 kts | 97° |
| 2026-05-05 21:31 | 38.14385 | 128.14190 | 37026 ft | 522 kts | 97° |
| 2026-05-05 21:32 | 38.13536 | 128.23277 | 37021 ft | 522 kts | 97° |
| 2026-05-05 21:32 | 38.12673 | 128.32427 | 36983 ft | 522 kts | 97° |
| 2026-05-05 21:33 | 38.11804 | 128.41576 | 36977 ft | 522 kts | 97° |
| 2026-05-05 21:33 | 38.10926 | 128.50732 | 36974 ft | 523 kts | 97° |
| 2026-05-05 21:34 | 38.10047 | 128.59838 | 36967 ft | 523 kts | 97° |
| 2026-05-05 21:34 | 38.09153 | 128.69009 | 36964 ft | 524 kts | 98° |
| 2026-05-05 21:35 | 38.08250 | 128.78192 | 36965 ft | 524 kts | 98° |
| 2026-05-05 21:35 | 38.07342 | 128.87366 | 36965 ft | 524 kts | 98° |
| 2026-05-05 21:36 | 38.06426 | 128.96540 | 36965 ft | 524 kts | 98° |
| 2026-05-05 21:36 | 38.05509 | 129.05653 | 36964 ft | 524 kts | 98° |
| 2026-05-05 21:37 | 38.04578 | 129.14825 | 36964 ft | 524 kts | 98° |
| 2026-05-05 21:37 | 38.03640 | 129.24003 | 36964 ft | 525 kts | 98° |
| 2026-05-05 21:38 | 38.02694 | 129.33180 | 36965 ft | 525 kts | 98° |
| 2026-05-05 21:38 | 38.01748 | 129.42291 | 36965 ft | 525 kts | 98° |
| 2026-05-05 21:39 | 38.00788 | 129.51466 | 36964 ft | 525 kts | 98° |
| 2026-05-05 21:39 | 37.99821 | 129.60634 | 36964 ft | 525 kts | 98° |
| 2026-05-05 21:40 | 37.98851 | 129.69768 | 36964 ft | 529 kts | 99° |
| 2026-05-05 21:40 | 37.97859 | 129.79032 | 36965 ft | 531 kts | 99° |
| 2026-05-05 21:41 | 37.96859 | 129.88293 | 36965 ft | 531 kts | 99° |
| 2026-05-05 21:41 | 37.95852 | 129.97559 | 36965 ft | 530 kts | 99° |
| 2026-05-05 21:42 | 37.94839 | 130.06812 | 36964 ft | 530 kts | 99° |
| 2026-05-05 21:42 | 37.93825 | 130.16005 | 36964 ft | 530 kts | 99° |
| 2026-05-05 21:43 | 37.92797 | 130.25250 | 36964 ft | 530 kts | 99° |
| 2026-05-05 21:43 | 37.91762 | 130.34503 | 36965 ft | 530 kts | 99° |
| 2026-05-05 21:44 | 37.90719 | 130.43746 | 36965 ft | 530 kts | 100° |
| 2026-05-05 21:44 | 37.89677 | 130.52928 | 36964 ft | 530 kts | 100° |
| 2026-05-05 21:45 | 37.88620 | 130.62162 | 36964 ft | 530 kts | 100° |
| 2026-05-05 21:45 | 37.87557 | 130.71399 | 36964 ft | 530 kts | 100° |
| 2026-05-05 21:46 | 37.86485 | 130.80632 | 36964 ft | 530 kts | 100° |
| 2026-05-05 21:46 | 37.85408 | 130.89856 | 36965 ft | 530 kts | 100° |
| 2026-05-05 21:47 | 37.84330 | 130.99019 | 36965 ft | 530 kts | 100° |
| 2026-05-05 21:47 | 37.83238 | 131.08235 | 36964 ft | 529 kts | 100° |
| 2026-05-05 21:48 | 37.82143 | 131.17420 | 36964 ft | 528 kts | 100° |
| 2026-05-05 21:48 | 37.81046 | 131.26556 | 36964 ft | 529 kts | 100° |
| 2026-05-05 21:49 | 37.79935 | 131.35746 | 36965 ft | 529 kts | 101° |
| 2026-05-05 21:49 | 37.78817 | 131.44934 | 36965 ft | 529 kts | 101° |
| 2026-05-05 21:50 | 37.77688 | 131.54154 | 37020 ft | 534 kts | 102° |
| 2026-05-05 21:50 | 37.76538 | 131.63481 | 37030 ft | 540 kts | 102° |
| 2026-05-05 21:51 | 37.75378 | 131.72820 | 37036 ft | 543 kts | 102° |
| 2026-05-05 21:51 | 37.74201 | 131.82237 | 37042 ft | 543 kts | 102° |
| 2026-05-05 21:52 | 37.72420 | 131.96373 | 37051 ft | 544 kts | 102° |
| 2026-05-05 21:53 | 37.71219 | 132.05820 | 37064 ft | 546 kts | 103° |
| 2026-05-05 21:53 | 37.70006 | 132.15306 | 37073 ft | 547 kts | 103° |
| 2026-05-05 21:54 | 37.68791 | 132.24737 | 37076 ft | 548 kts | 103° |
| 2026-05-05 21:54 | 37.67560 | 132.34241 | 37078 ft | 549 kts | 103° |
| 2026-05-05 21:55 | 37.66316 | 132.43774 | 37163 ft | 554 kts | 105° |
| 2026-05-05 21:55 | 37.65048 | 132.53431 | 37171 ft | 561 kts | 105° |
| 2026-05-05 21:56 | 37.63768 | 132.63115 | 37171 ft | 565 kts | 105° |
| 2026-05-05 21:56 | 37.62322 | 132.72856 | 37170 ft | 563 kts | 108° |
| 2026-05-05 21:57 | 37.60622 | 132.82469 | 37171 ft | 561 kts | 109° |
| 2026-05-05 21:57 | 37.58838 | 132.92033 | 37171 ft | 560 kts | 109° |
| 2026-05-05 21:58 | 37.57055 | 133.01586 | 37172 ft | 560 kts | 109° |
| 2026-05-05 21:58 | 37.55278 | 133.11073 | 37171 ft | 560 kts | 109° |
| 2026-05-05 21:59 | 37.53483 | 133.20625 | 37171 ft | 560 kts | 110° |
| 2026-05-05 21:59 | 37.51682 | 133.30161 | 37171 ft | 560 kts | 110° |
| 2026-05-05 22:00 | 37.49872 | 133.39704 | 37171 ft | 560 kts | 110° |
| 2026-05-05 22:00 | 37.48055 | 133.49238 | 37171 ft | 560 kts | 110° |
| 2026-05-05 22:01 | 37.46232 | 133.58758 | 37172 ft | 560 kts | 110° |
| 2026-05-05 22:01 | 37.44409 | 133.68229 | 37171 ft | 561 kts | 110° |
| 2026-05-05 22:02 | 37.42559 | 133.77802 | 37171 ft | 565 kts | 110° |
| 2026-05-05 22:02 | 37.40691 | 133.87421 | 37171 ft | 566 kts | 110° |
| 2026-05-05 22:03 | 37.38817 | 133.97028 | 37171 ft | 565 kts | 110° |
| 2026-05-05 22:03 | 37.36937 | 134.06618 | 37172 ft | 565 kts | 110° |
| 2026-05-05 22:04 | 37.35058 | 134.16157 | 37165 ft | 566 kts | 111° |
| 2026-05-05 22:04 | 37.33159 | 134.25761 | 37164 ft | 567 kts | 111° |
| 2026-05-05 22:05 | 37.31252 | 134.35355 | 37164 ft | 566 kts | 111° |
| 2026-05-05 22:05 | 37.29335 | 134.44956 | 37163 ft | 566 kts | 111° |
| 2026-05-05 22:06 | 37.27428 | 134.54467 | 37171 ft | 565 kts | 110° |
| 2026-05-05 22:06 | 37.25498 | 134.64047 | 37171 ft | 567 kts | 111° |
| 2026-05-05 22:07 | 37.23556 | 134.73646 | 37171 ft | 568 kts | 111° |
| 2026-05-05 22:07 | 37.21607 | 134.83234 | 37171 ft | 567 kts | 111° |
| 2026-05-05 22:08 | 37.19661 | 134.92763 | 37171 ft | 567 kts | 111° |
| 2026-05-05 22:08 | 37.17699 | 135.02331 | 37167 ft | 567 kts | 111° |
| 2026-05-05 22:09 | 37.15727 | 135.11907 | 37171 ft | 568 kts | 110° |
| 2026-05-05 22:09 | 37.13743 | 135.21495 | 37171 ft | 569 kts | 111° |
| 2026-05-05 22:10 | 37.11752 | 135.31073 | 37171 ft | 568 kts | 111° |
| 2026-05-05 22:10 | 37.09766 | 135.40592 | 37171 ft | 568 kts | 111° |
| 2026-05-05 22:11 | 37.07762 | 135.50151 | 37171 ft | 568 kts | 111° |
| 2026-05-05 22:11 | 37.05748 | 135.59715 | 37172 ft | 568 kts | 111° |
| 2026-05-05 22:12 | 37.03727 | 135.69272 | 37171 ft | 568 kts | 111° |
| 2026-05-05 22:12 | 37.01714 | 135.78749 | 37171 ft | 567 kts | 111° |
| 2026-05-05 22:13 | 36.99681 | 135.88282 | 37171 ft | 567 kts | 111° |
| 2026-05-05 22:13 | 36.97641 | 135.97807 | 37171 ft | 567 kts | 111° |
| 2026-05-05 22:14 | 36.95596 | 136.07314 | 37171 ft | 567 kts | 111° |
| 2026-05-05 22:14 | 36.93562 | 136.16727 | 36842 ft | 562 kts | 111° |
| 2026-05-05 22:14 | 36.92539 | 136.21452 | 36382 ft | 563 kts | 111° |
| 2026-05-05 22:15 | 36.91512 | 136.26178 | 35850 ft | 564 kts | 111° |
| 2026-05-05 22:15 | 36.90482 | 136.30913 | 35316 ft | 565 kts | 111° |
| 2026-05-05 22:15 | 36.89458 | 136.35613 | 35133 ft | 558 kts | 111° |
| 2026-05-05 22:15 | 36.88441 | 136.40264 | 34799 ft | 554 kts | 111° |
| 2026-05-05 22:16 | 36.87422 | 136.44918 | 34264 ft | 555 kts | 111° |
| 2026-05-05 22:16 | 36.86401 | 136.49569 | 33718 ft | 556 kts | 111° |
| 2026-05-05 22:16 | 36.85377 | 136.54228 | 33245 ft | 555 kts | 110° |
| 2026-05-05 22:16 | 36.84356 | 136.58862 | 32733 ft | 554 kts | 110° |
| 2026-05-05 22:17 | 36.83347 | 136.63436 | 32202 ft | 553 kts | 110° |
| 2026-05-05 22:17 | 36.82326 | 136.68052 | 31654 ft | 552 kts | 110° |
| 2026-05-05 22:17 | 36.81304 | 136.72664 | 31085 ft | 551 kts | 109° |
| 2026-05-05 22:17 | 36.80283 | 136.77259 | 30494 ft | 549 kts | 109° |
| 2026-05-05 22:18 | 36.79263 | 136.81845 | 29880 ft | 548 kts | 109° |
| 2026-05-05 22:18 | 36.78244 | 136.86416 | 29230 ft | 547 kts | 109° |
| 2026-05-05 22:18 | 36.77226 | 136.90973 | 28541 ft | 545 kts | 108° |
| 2026-05-05 22:18 | 36.76206 | 136.95529 | 27832 ft | 544 kts | 108° |
| 2026-05-05 22:19 | 36.75192 | 137.00049 | 27340 ft | 537 kts | 108° |
| 2026-05-05 22:19 | 36.74191 | 137.04504 | 26902 ft | 530 kts | 108° |
| 2026-05-05 22:19 | 36.73203 | 137.08896 | 26455 ft | 524 kts | 108° |
| 2026-05-05 22:19 | 36.72222 | 137.13245 | 26019 ft | 518 kts | 108° |
| 2026-05-05 22:20 | 36.71264 | 137.17486 | 25556 ft | 513 kts | 108° |
| 2026-05-05 22:20 | 36.70302 | 137.21732 | 25103 ft | 508 kts | 108° |
| 2026-05-05 22:20 | 36.69347 | 137.25946 | 24650 ft | 503 kts | 108° |
| 2026-05-05 22:20 | 36.68400 | 137.30112 | 24211 ft | 498 kts | 108° |
| 2026-05-05 22:21 | 36.67461 | 137.34238 | 23763 ft | 493 kts | 108° |
| 2026-05-05 22:21 | 36.66524 | 137.38345 | 23266 ft | 490 kts | 108° |
| 2026-05-05 22:21 | 36.65572 | 137.42402 | 22795 ft | 487 kts | 108° |
| 2026-05-05 22:21 | 36.64605 | 137.46423 | 22331 ft | 483 kts | 109° |
| 2026-05-05 22:22 | 36.63641 | 137.50419 | 21877 ft | 480 kts | 109° |
| 2026-05-05 22:22 | 36.62700 | 137.54322 | 21413 ft | 477 kts | 109° |
| 2026-05-05 22:22 | 36.61746 | 137.58279 | 20965 ft | 474 kts | 109° |
| 2026-05-05 22:22 | 36.60799 | 137.62201 | 20507 ft | 472 kts | 109° |
| 2026-05-05 22:23 | 36.59858 | 137.66097 | 20054 ft | 470 kts | 109° |
| 2026-05-05 22:23 | 36.58916 | 137.69994 | 19568 ft | 469 kts | 109° |
| 2026-05-05 22:23 | 36.57988 | 137.73826 | 19519 ft | 457 kts | 109° |
| 2026-05-05 22:23 | 36.57079 | 137.77571 | 19472 ft | 447 kts | 109° |
| 2026-05-05 22:24 | 36.56186 | 137.81250 | 19437 ft | 438 kts | 109° |
| 2026-05-05 22:24 | 36.55327 | 137.84782 | 19406 ft | 430 kts | 109° |
| 2026-05-05 22:24 | 36.54469 | 137.88304 | 19370 ft | 422 kts | 109° |
| 2026-05-05 22:24 | 36.53625 | 137.91765 | 19351 ft | 415 kts | 109° |
| 2026-05-05 22:25 | 36.52793 | 137.95168 | 19331 ft | 408 kts | 110° |
| 2026-05-05 22:25 | 36.51973 | 137.98521 | 19303 ft | 402 kts | 110° |
| 2026-05-05 22:25 | 36.51165 | 138.01822 | 19284 ft | 397 kts | 110° |
| 2026-05-05 22:25 | 36.50366 | 138.05079 | 19261 ft | 392 kts | 110° |
| 2026-05-05 22:26 | 36.49576 | 138.08297 | 19240 ft | 387 kts | 110° |
| 2026-05-05 22:26 | 36.48793 | 138.11480 | 19220 ft | 382 kts | 110° |
| 2026-05-05 22:26 | 36.48030 | 138.14579 | 19203 ft | 378 kts | 110° |
| 2026-05-05 22:26 | 36.47264 | 138.17687 | 19184 ft | 374 kts | 110° |
| 2026-05-05 22:27 | 36.46506 | 138.20758 | 19168 ft | 371 kts | 110° |
| 2026-05-05 22:27 | 36.45752 | 138.23809 | 19150 ft | 367 kts | 110° |
| 2026-05-05 22:27 | 36.45007 | 138.26823 | 19136 ft | 364 kts | 110° |
| 2026-05-05 22:27 | 36.44265 | 138.29817 | 19120 ft | 361 kts | 110° |
| 2026-05-05 22:28 | 36.43530 | 138.32782 | 19105 ft | 358 kts | 110° |
| 2026-05-05 22:28 | 36.42809 | 138.35683 | 19092 ft | 355 kts | 110° |
| 2026-05-05 22:28 | 36.42084 | 138.38602 | 19078 ft | 352 kts | 110° |
| 2026-05-05 22:28 | 36.41363 | 138.41499 | 19065 ft | 350 kts | 110° |
| 2026-05-05 22:29 | 36.40648 | 138.44370 | 19047 ft | 347 kts | 110° |
| 2026-05-05 22:29 | 36.39936 | 138.47222 | 19034 ft | 345 kts | 110° |
| 2026-05-05 22:29 | 36.39227 | 138.50062 | 19021 ft | 342 kts | 110° |
| 2026-05-05 22:29 | 36.38524 | 138.52875 | 18999 ft | 340 kts | 110° |
| 2026-05-05 22:30 | 36.37823 | 138.55673 | 18960 ft | 339 kts | 110° |
| 2026-05-05 22:30 | 36.37124 | 138.58462 | 18911 ft | 338 kts | 110° |
| 2026-05-05 22:30 | 36.36427 | 138.61243 | 18847 ft | 338 kts | 110° |
| 2026-05-05 22:30 | 36.35738 | 138.63986 | 18784 ft | 337 kts | 110° |
| 2026-05-05 22:31 | 36.35039 | 138.66767 | 18721 ft | 337 kts | 110° |
| 2026-05-05 22:31 | 36.34341 | 138.69541 | 18659 ft | 336 kts | 110° |
| 2026-05-05 22:31 | 36.33645 | 138.72302 | 18505 ft | 335 kts | 110° |
| 2026-05-05 22:31 | 36.32952 | 138.75051 | 18230 ft | 335 kts | 110° |
| 2026-05-05 22:32 | 36.32258 | 138.77802 | 17999 ft | 332 kts | 110° |
| 2026-05-05 22:32 | 36.31568 | 138.80528 | 17634 ft | 332 kts | 110° |
| 2026-05-05 22:32 | 36.30877 | 138.83262 | 17261 ft | 332 kts | 110° |
| 2026-05-05 22:32 | 36.30196 | 138.85948 | 16935 ft | 330 kts | 110° |
| 2026-05-05 22:33 | 36.29511 | 138.88651 | 16641 ft | 328 kts | 109° |
| 2026-05-05 22:33 | 36.28827 | 138.91344 | 16278 ft | 328 kts | 108° |
| 2026-05-05 22:33 | 36.28144 | 138.94033 | 15933 ft | 327 kts | 108° |
| 2026-05-05 22:33 | 36.27461 | 138.96719 | 15580 ft | 327 kts | 108° |
| 2026-05-05 22:34 | 36.26779 | 138.99398 | 15240 ft | 326 kts | 108° |
| 2026-05-05 22:34 | 36.26098 | 139.02068 | 14915 ft | 325 kts | 108° |
| 2026-05-05 22:34 | 36.25419 | 139.04729 | 14591 ft | 323 kts | 108° |
| 2026-05-05 22:34 | 36.24742 | 139.07380 | 14274 ft | 322 kts | 108° |
| 2026-05-05 22:35 | 36.24077 | 139.09982 | 13982 ft | 320 kts | 108° |
| 2026-05-05 22:35 | 36.23407 | 139.12600 | 13691 ft | 317 kts | 108° |
| 2026-05-05 22:35 | 36.22751 | 139.15160 | 13607 ft | 307 kts | 108° |
| 2026-05-05 22:35 | 36.22112 | 139.17650 | 13478 ft | 299 kts | 108° |
| 2026-05-05 22:36 | 36.21489 | 139.20078 | 13284 ft | 294 kts | 108° |
| 2026-05-05 22:36 | 36.20873 | 139.22474 | 13038 ft | 291 kts | 108° |
| 2026-05-05 22:36 | 36.20262 | 139.24852 | 12776 ft | 288 kts | 109° |
| 2026-05-05 22:36 | 36.19655 | 139.27210 | 12499 ft | 287 kts | 109° |
| 2026-05-05 22:37 | 36.19059 | 139.29524 | 12227 ft | 285 kts | 109° |
| 2026-05-05 22:37 | 36.18459 | 139.31848 | 11970 ft | 282 kts | 109° |
| 2026-05-05 22:37 | 36.17865 | 139.34152 | 11709 ft | 280 kts | 109° |
| 2026-05-05 22:37 | 36.17273 | 139.36444 | 11438 ft | 278 kts | 109° |
| 2026-05-05 22:38 | 36.16686 | 139.38714 | 11171 ft | 277 kts | 110° |
| 2026-05-05 22:38 | 36.16102 | 139.40971 | 10904 ft | 275 kts | 110° |
| 2026-05-05 22:38 | 36.15715 | 139.42462 | 10729 ft | 273 kts | 110° |
| 2026-05-05 22:38 | 36.15136 | 139.44697 | 10465 ft | 272 kts | 110° |
| 2026-05-05 22:39 | 36.14375 | 139.47632 | 10103 ft | 270 kts | 110° |
| 2026-05-05 22:39 | 36.13804 | 139.49830 | 9835 ft | 268 kts | 110° |
| 2026-05-05 22:39 | 36.13233 | 139.52025 | 9564 ft | 267 kts | 110° |
| 2026-05-05 22:39 | 36.12668 | 139.54201 | 9296 ft | 265 kts | 110° |
| 2026-05-05 22:40 | 36.12103 | 139.56370 | 9028 ft | 264 kts | 110° |
| 2026-05-05 22:40 | 36.11731 | 139.57799 | 8851 ft | 263 kts | 110° |
| 2026-05-05 22:40 | 36.11172 | 139.59942 | 8586 ft | 262 kts | 110° |
| 2026-05-05 22:40 | 36.10614 | 139.62082 | 8323 ft | 260 kts | 110° |
| 2026-05-05 22:41 | 36.10060 | 139.64203 | 8070 ft | 258 kts | 110° |
| 2026-05-05 22:41 | 36.09510 | 139.66309 | 7819 ft | 256 kts | 110° |
| 2026-05-05 22:41 | 36.08963 | 139.68398 | 7572 ft | 254 kts | 110° |
| 2026-05-05 22:41 | 36.08245 | 139.71140 | 7245 ft | 252 kts | 110° |
| 2026-05-05 22:42 | 36.07708 | 139.73192 | 7000 ft | 250 kts | 110° |
| 2026-05-05 22:42 | 36.07352 | 139.74550 | 6836 ft | 249 kts | 110° |
| 2026-05-05 22:42 | 36.06815 | 139.76596 | 6581 ft | 247 kts | 110° |
| 2026-05-05 22:42 | 36.06293 | 139.78584 | 6341 ft | 246 kts | 110° |
| 2026-05-05 22:43 | 36.05767 | 139.80587 | 6094 ft | 244 kts | 110° |
| 2026-05-05 22:43 | 36.05244 | 139.82579 | 5841 ft | 243 kts | 110° |
| 2026-05-05 22:43 | 36.04723 | 139.84558 | 5594 ft | 242 kts | 110° |
| 2026-05-05 22:43 | 36.04207 | 139.86523 | 5396 ft | 237 kts | 110° |
| 2026-05-05 22:44 | 36.03721 | 139.88441 | 5223 ft | 231 kts | 110° |
| 2026-05-05 22:44 | 36.03243 | 139.90311 | 5026 ft | 226 kts | 110° |
| 2026-05-05 22:44 | 36.02773 | 139.92130 | 4839 ft | 220 kts | 110° |
| 2026-05-05 22:44 | 36.02312 | 139.93897 | 4703 ft | 211 kts | 111° |
| 2026-05-05 22:45 | 36.01869 | 139.95584 | 4576 ft | 202 kts | 111° |
| 2026-05-05 22:45 | 36.01452 | 139.97163 | 4463 ft | 192 kts | 111° |
| 2026-05-05 22:45 | 36.01044 | 139.98707 | 4256 ft | 186 kts | 111° |
| 2026-05-05 22:45 | 36.00647 | 140.00204 | 4046 ft | 179 kts | 112° |
| 2026-05-05 22:46 | 36.00267 | 140.01635 | 4022 ft | 173 kts | 112° |
| 2026-05-05 22:46 | 35.99901 | 140.03014 | 3976 ft | 165 kts | 112° |
| 2026-05-05 22:46 | 35.99548 | 140.04341 | 3997 ft | 160 kts | 112° |
| 2026-05-05 22:46 | 35.99201 | 140.05644 | 3997 ft | 161 kts | 112° |
| 2026-05-05 22:47 | 35.98849 | 140.06963 | 4008 ft | 162 kts | 112° |
| 2026-05-05 22:47 | 35.98496 | 140.08289 | 3995 ft | 163 kts | 112° |
| 2026-05-05 22:47 | 35.98150 | 140.09587 | 4025 ft | 161 kts | 112° |
| 2026-05-05 22:47 | 35.97799 | 140.10906 | 3982 ft | 162 kts | 111° |
| 2026-05-05 22:48 | 35.97447 | 140.12225 | 3980 ft | 160 kts | 111° |
| 2026-05-05 22:48 | 35.97103 | 140.13517 | 3984 ft | 157 kts | 111° |
| 2026-05-05 22:48 | 35.96763 | 140.14790 | 3990 ft | 156 kts | 111° |
| 2026-05-05 22:48 | 35.96424 | 140.16065 | 3998 ft | 156 kts | 111° |
| 2026-05-05 22:49 | 35.96083 | 140.17344 | 3999 ft | 157 kts | 111° |
| 2026-05-05 22:49 | 35.95742 | 140.18620 | 4011 ft | 156 kts | 111° |
| 2026-05-05 22:49 | 35.95405 | 140.19888 | 4011 ft | 156 kts | 111° |
| 2026-05-05 22:49 | 35.95073 | 140.21135 | 3999 ft | 153 kts | 111° |
| 2026-05-05 22:50 | 35.94744 | 140.22374 | 3986 ft | 151 kts | 111° |
| 2026-05-05 22:50 | 35.94420 | 140.23588 | 3987 ft | 147 kts | 113° |
| 2026-05-05 22:50 | 35.93929 | 140.24672 | 3837 ft | 146 kts | 133° |
| 2026-05-05 22:50 | 35.93146 | 140.25452 | 3667 ft | 144 kts | 146° |
| 2026-05-05 22:51 | 35.92294 | 140.26103 | 3466 ft | 144 kts | 152° |
| 2026-05-05 22:51 | 35.91427 | 140.26716 | 3271 ft | 143 kts | 153° |
| 2026-05-05 22:51 | 35.90568 | 140.27327 | 3081 ft | 143 kts | 153° |
| 2026-05-05 22:51 | 35.89711 | 140.27942 | 2891 ft | 142 kts | 153° |
| 2026-05-05 22:52 | 35.88867 | 140.28550 | 2704 ft | 142 kts | 152° |
| 2026-05-05 22:52 | 35.88015 | 140.29167 | 2515 ft | 142 kts | 152° |
| 2026-05-05 22:52 | 35.87160 | 140.29786 | 2326 ft | 142 kts | 152° |
| 2026-05-05 22:52 | 35.86308 | 140.30403 | 2138 ft | 143 kts | 152° |
| 2026-05-05 22:53 | 35.85447 | 140.31027 | 1951 ft | 144 kts | 152° |
| 2026-05-05 22:53 | 35.84596 | 140.31676 | 1770 ft | 143 kts | 150° |
| 2026-05-05 22:53 | 35.83766 | 140.32314 | 1585 ft | 139 kts | 152° |
| 2026-05-05 22:53 | 35.82923 | 140.32875 | 1396 ft | 136 kts | 153° |
| 2026-05-05 22:54 | 35.82099 | 140.33464 | 1163 ft | 138 kts | 152° |
| 2026-05-05 22:54 | 35.81284 | 140.34064 | 956 ft | 140 kts | 151° |
| 2026-05-05 22:54 | 35.80445 | 140.34674 | 827 ft | 137 kts | 153° |
| 2026-05-05 22:54 | 35.79624 | 140.35251 | 590 ft | 140 kts | 151° |
| 2026-05-05 22:55 | 35.78789 | 140.35852 | 417 ft | 137 kts | 151° |
| 2026-05-05 22:55 | 35.77973 | 140.36450 | 274 ft | 136 kts | 150° |
| 2026-05-05 22:55 | 35.77163 | 140.37039 | 164 ft | 133 kts | 150° |
| 2026-05-05 22:55 | 35.76466 | 140.37548 | 149 ft | 98 kts | 153° |
| 2026-05-05 22:56 | 35.76047 | 140.37836 | 149 ft | 33 kts | 148° |
| 2026-05-05 22:56 | 35.75891 | 140.38004 | 149 ft | 28 kts | 123° |
| 2026-05-05 22:56 | 35.75825 | 140.38142 | 149 ft | 8 kts | 118° |
| 2026-05-05 22:56 | 35.75811 | 140.38201 | 149 ft | 7 kts | 83° |
| 2026-05-05 22:57 | 35.75812 | 140.38206 | 149 ft | 0 kts | 78° |
| 2026-05-05 22:57 | 35.75814 | 140.38224 | 149 ft | 3 kts | 85° |
| 2026-05-05 22:58 | 35.75803 | 140.38257 | 149 ft | 5 kts | 129° |
| 2026-05-05 22:58 | 35.75773 | 140.38288 | 149 ft | 7 kts | 147° |
| 2026-05-05 22:58 | 35.75720 | 140.38343 | 149 ft | 12 kts | 117° |
| 2026-05-05 22:58 | 35.75738 | 140.38438 | 149 ft | 12 kts | 59° |
| 2026-05-05 22:59 | 35.75766 | 140.38486 | 149 ft | 4 kts | 44° |
| 2026-05-05 22:59 | 35.75789 | 140.38495 | 149 ft | 4 kts | 3° |
| 2026-05-05 22:59 | 35.75838 | 140.38486 | 149 ft | 8 kts | 336° |
| 2026-05-05 22:59 | 35.75888 | 140.38451 | 149 ft | 8 kts | 329° |
| 2026-05-05 23:00 | 35.75975 | 140.38464 | 149 ft | 7 kts | 54° |
| 2026-05-05 23:00 | 35.75988 | 140.38488 | 149 ft | 2 kts | 58° |
| 2026-05-05 23:00 | 35.75996 | 140.38503 | 149 ft | 0 kts | 58° |